Observation data for Earth on 04/08/2021      Previous  Date  Next       Current Mesonet Observations  Soil Data  Daily Summary Page  Observations in Plain Language
KEA1 080500Z 03006KT 11/M07 A2993 RMK A01 T01101073  RH  027%=      5-min Rain = 0
KEA1 080501Z 05004KT 11/M07 A2993 RMK A01 T01101073  RH  027%=      5-min Rain = 0
KEA1 080502Z 05006KT 11/M07 A2993 RMK A01 T01101072  RH  027%=      5-min Rain = 0
KEA1 080503Z 06007KT 11/M07 A2993 RMK A01 T01101072  RH  027%=      5-min Rain = 0
KEA1 080504Z 05008KT 11/M07 A2993 RMK A01 T01111071  RH  027%=      5-min Rain = 0
KEA1 080505Z 05008KT 11/M07 A2993 RMK A01 T01131068  RH  028%=      5-min Rain = 0
KEA1 080506Z 05008KT 11/M07 A2993 RMK A01 T01121069  RH  028%=      5-min Rain = 0
KEA1 080507Z 05009KT 11/M07 A2993 RMK A01 T01091069  RH  028%=      5-min Rain = 0
KEA1 080508Z 05009KT 11/M07 A2993 RMK A01 T01061069  RH  029%=      5-min Rain = 0
KEA1 080509Z 06010KT 11/M07 A2993 RMK A01 T01051067  RH  029%=      5-min Rain = 0
KEA1 080510Z 06010KT 10/M07 A2993 RMK A01 T01041065  RH  030%=      5-min Rain = 0
KEA1 080511Z 05010KT 11/M06 A2993 RMK A01 T01051064  RH  030%=      5-min Rain = 0
KEA1 080512Z 06011KT 11/M06 A2993 RMK A01 T01051064  RH  030%=      5-min Rain = 0
KEA1 080513Z 05011KT 10/M06 A2993 RMK A01 T01041063  RH  030%=      5-min Rain = 0
KEA1 080514Z 06011KT 11/M06 A2993 RMK A01 T01051062  RH  030%=      5-min Rain = 0
KEA1 080515Z 05010KT 11/M06 A2994 RMK A01 T01071060  RH  030%=      5-min Rain = 0
KEA1 080516Z 05009KT 11/M06 A2994 RMK A01 T01091060  RH  030%=      5-min Rain = 0
KEA1 080517Z 05008KT 11/M06 A2994 RMK A01 T01091061  RH  030%=      5-min Rain = 0
KEA1 080518Z 06007KT 11/M06 A2994 RMK A01 T01091061  RH  030%=      5-min Rain = 0
KEA1 080519Z 06006KT 11/M06 A2994 RMK A01 T01071062  RH  030%=      5-min Rain = 0
KEA1 080520Z 06006KT 11/M06 A2993 RMK A01 T01061063  RH  030%=      5-min Rain = 0
KEA1 080521Z 07006KT 10/M06 A2993 RMK A01 T01041063  RH  030%=      5-min Rain = 0
KEA1 080522Z 06006KT 10/M06 A2993 RMK A01 T01021063  RH  031%=      5-min Rain = 0
KEA1 080523Z 06006KT 10/M06 A2994 RMK A01 T01001064  RH  031%=      5-min Rain = 0
KEA1 080524Z 06007KT 10/M06 A2994 RMK A01 T00991064  RH  031%=      5-min Rain = 0
KEA1 080525Z 05007KT 10/M07 A2994 RMK A01 T00971065  RH  031%=      5-min Rain = 0
KEA1 080526Z 05007KT 10/M07 A2994 RMK A01 T00961065  RH  032%=      5-min Rain = 0
KEA1 080527Z 05008KT 09/M07 A2994 RMK A01 T00921067  RH  032%=      5-min Rain = 0
KEA1 080528Z 04007KT 09/M07 A2993 RMK A01 T00901067  RH  032%=      5-min Rain = 0
KEA1 080529Z 04007KT 09/M07 A2993 RMK A01 T00881067  RH  033%=      5-min Rain = 0
KEA1 080530Z 03007KT 09/M07 A2994 RMK A01 T00871068  RH  033%=      5-min Rain = 0
KEA1 080531Z 03006KT 09/M07 A2993 RMK A01 T00851068  RH  033%=      5-min Rain = 0
KEA1 080532Z 03007KT 08/M07 A2994 RMK A01 T00831068  RH  034%=      5-min Rain = 0
KEA1 080533Z 04007KT 08/M07 A2993 RMK A01 T00821067  RH  034%=      5-min Rain = 0
KEA1 080534Z 04007KT 08/M07 A2993 RMK A01 T00821066  RH  034%=      5-min Rain = 0
KEA1 080535Z 04007KT 08/M07 A2993 RMK A01 T00811066  RH  035%=      5-min Rain = 0
KEA1 080536Z 05008KT 08/M07 A2993 RMK A01 T00821066  RH  035%=      5-min Rain = 0
KEA1 080537Z 05008KT 08/M07 A2993 RMK A01 T00811066  RH  035%=      5-min Rain = 0
KEA1 080538Z 05008KT 08/M07 A2994 RMK A01 T00821065  RH  035%=      5-min Rain = 0
KEA1 080539Z 05007KT 08/M07 A2994 RMK A01 T00831065  RH  034%=      5-min Rain = 0
KEA1 080540Z 06007KT 08/M07 A2993 RMK A01 T00831065  RH  034%=      5-min Rain = 0
KEA1 080541Z 06007KT 08/M07 A2993 RMK A01 T00831066  RH  034%=      5-min Rain = 0
KEA1 080542Z 07007KT 08/M07 A2993 RMK A01 T00821066  RH  034%=      5-min Rain = 0
KEA1 080543Z 07008KT 08/M07 A2993 RMK A01 T00821066  RH  034%=      5-min Rain = 0
KEA1 080544Z 07010KT 08/M07 A2993 RMK A01 T00811065  RH  035%=      5-min Rain = 0
KEA1 080545Z 07011KT 08/M06 A2993 RMK A01 T00821064  RH  035%=      5-min Rain = 0
KEA1 080546Z 07012KT 08/M06 A2993 RMK A01 T00841062  RH  035%=      5-min Rain = 0
KEA1 080547Z 07012KT 09/M06 A2993 RMK A01 T00861060  RH  035%=      5-min Rain = 0
KEA1 080548Z 07013KT 09/M06 A2993 RMK A01 T00881057  RH  035%=      5-min Rain = 0
KEA1 080549Z 07013KT 09/M05 A2993 RMK A01 T00921054  RH  035%=      5-min Rain = 0
KEA1 080550Z 07013KT 10/M05 A2993 RMK A01 T00951053  RH  035%=      5-min Rain = 0
KEA1 080551Z 07013KT 10/M05 A2993 RMK A01 T00971053  RH  034%=      5-min Rain = 0
KEA1 080552Z 07013KT 10/M05 A2993 RMK A01 T00981053  RH  034%=      5-min Rain = 0
KEA1 080553Z 07013KT 10/M05 A2993 RMK A01 T00991053  RH  034%=      5-min Rain = 0
KEA1 080554Z 07013KT 10/M05 A2993 RMK A01 T00981053  RH  034%=      5-min Rain = 0
KEA1 080555Z 07013KT 10/M05 A2993 RMK A01 T00971054  RH  034%=      5-min Rain = 0
KEA1 080556Z 07013KT 10/M05 A2993 RMK A01 T00971053  RH  034%=      5-min Rain = 0
KEA1 080557Z 07012KT 10/M05 A2993 RMK A01 T00961054  RH  034%=      5-min Rain = 0
KEA1 080558Z 07011KT 10/M05 A2993 RMK A01 T00961054  RH  034%=      5-min Rain = 0
KEA1 080559Z 07012KT 10/M05 A2993 RMK A01 T00951054  RH  035%=      5-min Rain = 0
KEA1 080600Z 07012KT 10/M05 A2993 RMK A01 T00951053  RH  035%=      5-min Rain = 0
KEA1 080601Z 07011KT 09/M05 A2993 RMK A01 T00941053  RH  035%=      5-min Rain = 0
KEA1 080602Z 07011KT 09/M05 A2993 RMK A01 T00941053  RH  035%=      5-min Rain = 0
KEA1 080603Z 07012KT 09/M05 A2993 RMK A01 T00931052  RH  035%=      5-min Rain = 0
KEA1 080604Z 07013KT 09/M05 A2993 RMK A01 T00941051  RH  036%=      5-min Rain = 0
KEA1 080605Z 07013KT 09/M05 A2993 RMK A01 T00941050  RH  036%=      5-min Rain = 0
KEA1 080606Z 07013KT 10/M05 A2993 RMK A01 T00961048  RH  036%=      5-min Rain = 0
KEA1 080607Z 07014KT 10/M05 A2993 RMK A01 T00981048  RH  036%=      5-min Rain = 0
KEA1 080608Z 07015KT 10/M05 A2993 RMK A01 T00981047  RH  036%=      5-min Rain = 0
KEA1 080609Z 07015KT 10/M05 A2993 RMK A01 T01001046  RH  035%=      5-min Rain = 0
KEA1 080610Z 07015KT 10/M05 A2993 RMK A01 T01021046  RH  035%=      5-min Rain = 0
KEA1 080611Z 07014KT 10/M05 A2993 RMK A01 T01031046  RH  035%=      5-min Rain = 0
KEA1 080612Z 07015KT 10/M05 A2993 RMK A01 T01031046  RH  035%=      5-min Rain = 0
KEA1 080613Z 07014KT 10/M05 A2993 RMK A01 T01041045  RH  035%=      5-min Rain = 0
KEA1 080614Z 07014KT 11/M04 A2993 RMK A01 T01051044  RH  035%=      5-min Rain = 0
KEA1 080615Z 07014KT 10/M05 A2993 RMK A01 T01041045  RH  035%=      5-min Rain = 0
KEA1 080616Z 06014KT 10/M05 A2993 RMK A01 T01041045  RH  035%=      5-min Rain = 0
KEA1 080617Z 07013KT 10/M05 A2993 RMK A01 T01031045  RH  035%=      5-min Rain = 0
KEA1 080618Z 07013KT 10/M05 A2993 RMK A01 T01021045  RH  035%=      5-min Rain = 0
KEA1 080619Z 07013KT 10/M05 A2994 RMK A01 T01001045  RH  035%=      5-min Rain = 0
KEA1 080620Z 07012KT 10/M05 A2994 RMK A01 T00991045  RH  036%=      5-min Rain = 0
KEA1 080621Z 07012KT 10/M05 A2994 RMK A01 T00981046  RH  036%=      5-min Rain = 0
KEA1 080622Z 08011KT 10/M05 A2994 RMK A01 T00971045  RH  036%=      5-min Rain = 0
KEA1 080623Z 08010KT 10/M05 A2994 RMK A01 T00961045  RH  037%=      5-min Rain = 0
KEA1 080624Z 08010KT 10/M05 A2994 RMK A01 T00951045  RH  037%=      5-min Rain = 0
KEA1 080625Z 08010KT 09/M05 A2994 RMK A01 T00941045  RH  037%=      5-min Rain = 0
KEA1 080626Z 08011KT 09/M04 A2994 RMK A01 T00941044  RH  037%=      5-min Rain = 0
KEA1 080627Z 08010KT 09/M04 A2994 RMK A01 T00941044  RH  037%=      5-min Rain = 0
KEA1 080628Z 08011KT 10/M04 A2994 RMK A01 T00951043  RH  037%=      5-min Rain = 0
KEA1 080629Z 08014KT 10/M04 A2994 RMK A01 T00981042  RH  037%=      5-min Rain = 0
KEA1 080630Z 08013KT 10/M04 A2994 RMK A01 T01001041  RH  037%=      5-min Rain = 0
KEA1 080631Z 08014KT 10/M04 A2994 RMK A01 T01021040  RH  037%=      5-min Rain = 0
KEA1 080632Z 08014KT 11/M04 A2994 RMK A01 T01051038  RH  036%=      5-min Rain = 0
KEA1 080633Z 08012KT 11/M04 A2994 RMK A01 T01081037  RH  036%=      5-min Rain = 0
KEA1 080634Z 08012KT 11/M04 A2994 RMK A01 T01081038  RH  036%=      5-min Rain = 0
KEA1 080635Z 08015KT 11/M04 A2994 RMK A01 T01081037  RH  036%=      5-min Rain = 0
KEA1 080636Z 08014KT 11/M04 A2993 RMK A01 T01071037  RH  036%=      5-min Rain = 0
KEA1 080637Z 08014KT 11/M04 A2993 RMK A01 T01061038  RH  036%=      5-min Rain = 0
KEA1 080638Z 08015KT 11/M04 A2993 RMK A01 T01051038  RH  036%=      5-min Rain = 0
KEA1 080639Z 07015KT 10/M04 A2993 RMK A01 T01041039  RH  036%=      5-min Rain = 0
KEA1 080640Z 08013KT 10/M04 A2993 RMK A01 T01041039  RH  036%=      5-min Rain = 0
KEA1 080641Z 08013KT 10/M04 A2993 RMK A01 T01031040  RH  036%=      5-min Rain = 0
KEA1 080642Z 08012KT 10/M04 A2993 RMK A01 T01011041  RH  037%=      5-min Rain = 0
KEA1 080643Z 08012KT 10/M04 A2993 RMK A01 T00991041  RH  037%=      5-min Rain = 0
KEA1 080644Z 08011KT 10/M04 A2993 RMK A01 T00971042  RH  037%=      5-min Rain = 0
KEA1 080645Z 08012KT 10/M04 A2993 RMK A01 T00961042  RH  038%=      5-min Rain = 0
KEA1 080646Z 08011KT 09/M04 A2993 RMK A01 T00941042  RH  038%=      5-min Rain = 0
KEA1 080647Z 08011KT 09/M04 A2993 RMK A01 T00931042  RH  038%=      5-min Rain = 0
KEA1 080648Z 08012KT 09/M04 A2993 RMK A01 T00911042  RH  039%=      5-min Rain = 0
KEA1 080649Z 09011KT 09/M04 A2993 RMK A01 T00911041  RH  039%=      5-min Rain = 0
KEA1 080650Z 08011KT 09/M04 A2993 RMK A01 T00911041  RH  039%=      5-min Rain = 0
KEA1 080651Z 08011KT 09/M04 A2993 RMK A01 T00901042  RH  039%=      5-min Rain = 0
KEA1 080652Z 09011KT 09/M04 A2993 RMK A01 T00891042  RH  039%=      5-min Rain = 0
KEA1 080653Z 09011KT 09/M04 A2993 RMK A01 T00891041  RH  040%=      5-min Rain = 0
KEA1 080654Z 09012KT 09/M04 A2993 RMK A01 T00891041  RH  040%=      5-min Rain = 0
KEA1 080655Z 09012KT 09/M04 A2993 RMK A01 T00901041  RH  040%=      5-min Rain = 0
KEA1 080656Z 09012KT 09/M04 A2993 RMK A01 T00911040  RH  040%=      5-min Rain = 0
KEA1 080657Z 09012KT 09/M04 A2993 RMK A01 T00921040  RH  039%=      5-min Rain = 0
KEA1 080658Z 08012KT 09/M04 A2993 RMK A01 T00921040  RH  039%=      5-min Rain = 0
KEA1 080659Z 08013KT 09/M04 A2993 RMK A01 T00931039  RH  039%=      5-min Rain = 0
KEA1 080700Z 09012KT 09/M04 A2993 RMK A01 T00941039  RH  039%=      5-min Rain = 0
KEA1 080701Z 08011KT 10/M04 A2993 RMK A01 T00951038  RH  039%=      5-min Rain = 0
KEA1 080702Z 08014KT 10/M04 A2993 RMK A01 T00951038  RH  039%=      5-min Rain = 0
KEA1 080703Z 08013KT 10/M04 A2993 RMK A01 T00981036  RH  039%=      5-min Rain = 0
KEA1 080704Z 08013KT 10/M04 A2993 RMK A01 T00991036  RH  039%=      5-min Rain = 0
KEA1 080705Z 09012KT 10/M03 A2993 RMK A01 T01011034  RH  039%=      5-min Rain = 0
KEA1 080706Z 08016KT 11/M03 A2993 RMK A01 T01061026  RH  039%=      5-min Rain = 0
KEA1 080707Z 08016KT 11/M02 A2993 RMK A01 T01131023  RH  039%=      5-min Rain = 0
KEA1 080708Z 09014KT 12/M02 A2992 RMK A01 T01161024  RH  038%=      5-min Rain = 0
KEA1 080709Z 09014KT 12/M02 A2992 RMK A01 T01171023  RH  038%=      5-min Rain = 0
KEA1 080710Z 08019G24KT 12/M02 A2992 RMK A01 T01191021  RH  038%=      5-min Rain = 0
KEA1 080711Z 08019KT 12/M02 A2992 RMK A01 T01231021  RH  037%=      5-min Rain = 0
KEA1 080712Z 09013KT 12/M02 A2993 RMK A01 T01241022  RH  036%=      5-min Rain = 0
KEA1 080713Z 09012KT 12/M03 A2993 RMK A01 T01191027  RH  036%=      5-min Rain = 0
KEA1 080714Z 08013KT 12/M03 A2993 RMK A01 T01151027  RH  037%=      5-min Rain = 0
KEA1 080715Z 08013G18KT 11/M03 A2993 RMK A01 T01131026  RH  038%=      5-min Rain = 0
KEA1 080716Z 09011KT 11/M03 A2993 RMK A01 T01121027  RH  038%=      5-min Rain = 0
KEA1 080717Z 08011KT 11/M03 A2993 RMK A01 T01111027  RH  038%=      5-min Rain = 0
KEA1 080718Z 09013KT 11/M03 A2993 RMK A01 T01101027  RH  038%=      5-min Rain = 0
KEA1 080719Z 09012KT 11/M03 A2993 RMK A01 T01101026  RH  038%=      5-min Rain = 0
KEA1 080720Z 08011KT 11/M03 A2993 RMK A01 T01101026  RH  038%=      5-min Rain = 0
KEA1 080721Z 08010KT 11/M03 A2993 RMK A01 T01091027  RH  038%=      5-min Rain = 0
KEA1 080722Z 08009KT 11/M03 A2993 RMK A01 T01071028  RH  039%=      5-min Rain = 0
KEA1 080723Z 09009KT 11/M03 A2993 RMK A01 T01051029  RH  039%=      5-min Rain = 0
KEA1 080724Z 09009KT 10/M03 A2993 RMK A01 T01041029  RH  039%=      5-min Rain = 0
KEA1 080725Z 10009KT 10/M03 A2993 RMK A01 T01031029  RH  040%=      5-min Rain = 0
KEA1 080726Z 10008KT 10/M03 A2994 RMK A01 T01021029  RH  040%=      5-min Rain = 0
KEA1 080727Z 09007KT 10/M03 A2994 RMK A01 T01011029  RH  040%=      5-min Rain = 0
KEA1 080728Z 08007KT 10/M03 A2994 RMK A01 T01001029  RH  040%=      5-min Rain = 0
KEA1 080729Z 08007KT 10/M03 A2994 RMK A01 T00991030  RH  040%=      5-min Rain = 0
KEA1 080730Z 09007KT 10/M03 A2994 RMK A01 T00971030  RH  041%=      5-min Rain = 0
KEA1 080731Z 09007KT 10/M03 A2994 RMK A01 T00961031  RH  041%=      5-min Rain = 0
KEA1 080732Z 09008KT 10/M03 A2994 RMK A01 T00951031  RH  041%=      5-min Rain = 0
KEA1 080733Z 09008KT 09/M03 A2993 RMK A01 T00941029  RH  042%=      5-min Rain = 0
KEA1 080734Z 09009KT 10/M03 A2993 RMK A01 T00961027  RH  042%=      5-min Rain = 0
KEA1 080735Z 10009KT 10/M03 A2993 RMK A01 T00971026  RH  042%=      5-min Rain = 0
KEA1 080736Z 10009KT 10/M03 A2993 RMK A01 T00981026  RH  042%=      5-min Rain = 0
KEA1 080737Z 09009KT 10/M03 A2993 RMK A01 T01001025  RH  042%=      5-min Rain = 0
KEA1 080738Z 09009KT 10/M03 A2993 RMK A01 T00991026  RH  041%=      5-min Rain = 0
KEA1 080739Z 09009KT 10/M03 A2993 RMK A01 T00991026  RH  041%=      5-min Rain = 0
KEA1 080740Z 09009KT 10/M03 A2993 RMK A01 T00991026  RH  041%=      5-min Rain = 0
KEA1 080741Z 09009KT 10/M03 A2993 RMK A01 T00981026  RH  042%=      5-min Rain = 0
KEA1 080742Z 09009KT 10/M03 A2993 RMK A01 T00971027  RH  042%=      5-min Rain = 0
KEA1 080743Z 09009KT 10/M03 A2993 RMK A01 T00961027  RH  042%=      5-min Rain = 0
KEA1 080744Z 09008KT 10/M03 A2993 RMK A01 T00961026  RH  042%=      5-min Rain = 0
KEA1 080745Z 09008KT 10/M03 A2993 RMK A01 T00951026  RH  042%=      5-min Rain = 0
KEA1 080746Z 09007KT 10/M03 A2993 RMK A01 T00951026  RH  042%=      5-min Rain = 0
KEA1 080747Z 09007KT 09/M03 A2993 RMK A01 T00941026  RH  043%=      5-min Rain = 0
KEA1 080748Z 09007KT 09/M03 A2993 RMK A01 T00931027  RH  043%=      5-min Rain = 0
KEA1 080749Z 09007KT 09/M03 A2993 RMK A01 T00921027  RH  043%=      5-min Rain = 0
KEA1 080750Z 09007KT 09/M03 A2993 RMK A01 T00921027  RH  043%=      5-min Rain = 0
KEA1 080751Z 09007KT 09/M03 A2993 RMK A01 T00911027  RH  043%=      5-min Rain = 0
KEA1 080752Z 08007KT 09/M03 A2993 RMK A01 T00911027  RH  044%=      5-min Rain = 0
KEA1 080753Z 09008KT 09/M03 A2993 RMK A01 T00891027  RH  044%=      5-min Rain = 0
KEA1 080754Z 09007KT 09/M03 A2993 RMK A01 T00891027  RH  044%=      5-min Rain = 0
KEA1 080755Z 09007KT 09/M03 A2993 RMK A01 T00891026  RH  044%=      5-min Rain = 0
KEA1 080756Z 09008KT 09/M03 A2993 RMK A01 T00891026  RH  044%=      5-min Rain = 0
KEA1 080757Z 09007KT 09/M03 A2993 RMK A01 T00891025  RH  044%=      5-min Rain = 0
KEA1 080758Z 09007KT 09/M03 A2993 RMK A01 T00891026  RH  044%=      5-min Rain = 0
KEA1 080759Z 09006KT 09/M03 A2993 RMK A01 T00891026  RH  044%=      5-min Rain = 0
KEA1 080800Z 09007KT 09/M03 A2993 RMK A01 T00881025  RH  045%=      5-min Rain = 0
KEA1 080801Z 09007KT 09/M03 A2993 RMK A01 T00881025  RH  045%=      5-min Rain = 0
KEA1 080802Z 09007KT 09/M03 A2993 RMK A01 T00881025  RH  045%=      5-min Rain = 0
KEA1 080803Z 09007KT 09/M03 A2993 RMK A01 T00881025  RH  045%=      5-min Rain = 0
KEA1 080804Z 09007KT 09/M03 A2993 RMK A01 T00871025  RH  045%=      5-min Rain = 0
KEA1 080805Z 09007KT 09/M03 A2993 RMK A01 T00871025  RH  045%=      5-min Rain = 0
KEA1 080806Z 09007KT 09/M02 A2993 RMK A01 T00881024  RH  045%=      5-min Rain = 0
KEA1 080807Z 09006KT 09/M02 A2993 RMK A01 T00881024  RH  045%=      5-min Rain = 0
KEA1 080808Z 09007KT 09/M02 A2993 RMK A01 T00881024  RH  045%=      5-min Rain = 0
KEA1 080809Z 09007KT 09/M02 A2993 RMK A01 T00871024  RH  045%=      5-min Rain = 0
KEA1 080810Z 09007KT 09/M02 A2993 RMK A01 T00871024  RH  045%=      5-min Rain = 0
KEA1 080811Z 08007KT 09/M02 A2993 RMK A01 T00871024  RH  046%=      5-min Rain = 0
KEA1 080812Z 08006KT 09/M02 A2993 RMK A01 T00861024  RH  046%=      5-min Rain = 0
KEA1 080813Z 08007KT 09/M02 A2993 RMK A01 T00861024  RH  046%=      5-min Rain = 0
KEA1 080814Z 08008KT 09/M02 A2993 RMK A01 T00861024  RH  046%=      5-min Rain = 0
KEA1 080815Z 07008KT 09/M02 A2993 RMK A01 T00861023  RH  046%=      5-min Rain = 0
KEA1 080816Z 07007KT 09/M03 A2993 RMK A01 T00851025  RH  046%=      5-min Rain = 0
KEA1 080817Z 07007KT 08/M03 A2993 RMK A01 T00831026  RH  046%=      5-min Rain = 0
KEA1 080818Z 07006KT 08/M03 A2994 RMK A01 T00811027  RH  047%=      5-min Rain = 0
KEA1 080819Z 07006KT 08/M03 A2994 RMK A01 T00801027  RH  047%=      5-min Rain = 0
KEA1 080820Z 07006KT 08/M03 A2994 RMK A01 T00791026  RH  047%=      5-min Rain = 0
KEA1 080821Z 07006KT 08/M03 A2994 RMK A01 T00781027  RH  047%=      5-min Rain = 0
KEA1 080822Z 06006KT 08/M03 A2994 RMK A01 T00771027  RH  048%=      5-min Rain = 0
KEA1 080823Z 06006KT 08/M03 A2993 RMK A01 T00771027  RH  048%=      5-min Rain = 0
KEA1 080824Z 05006KT 08/M03 A2993 RMK A01 T00761027  RH  048%=      5-min Rain = 0
KEA1 080825Z 05006KT 07/M03 A2993 RMK A01 T00741028  RH  048%=      5-min Rain = 0
KEA1 080826Z 03006KT 07/M03 A2993 RMK A01 T00721030  RH  048%=      5-min Rain = 0
KEA1 080827Z 03006KT 07/M03 A2994 RMK A01 T00691033  RH  048%=      5-min Rain = 0
KEA1 080828Z 04006KT 07/M04 A2994 RMK A01 T00651035  RH  049%=      5-min Rain = 0
KEA1 080829Z 05007KT 06/M04 A2994 RMK A01 T00621035  RH  050%=      5-min Rain = 0
KEA1 080830Z 05007KT 06/M04 A2994 RMK A01 T00601035  RH  051%=      5-min Rain = 0
KEA1 080831Z 06007KT 06/M03 A2993 RMK A01 T00591032  RH  052%=      5-min Rain = 0
KEA1 080832Z 06006KT 06/M03 A2993 RMK A01 T00601030  RH  052%=      5-min Rain = 0
KEA1 080833Z 06006KT 06/M03 A2993 RMK A01 T00601030  RH  052%=      5-min Rain = 0
KEA1 080834Z 06005KT 06/M03 A2993 RMK A01 T00611030  RH  052%=      5-min Rain = 0
KEA1 080835Z 07005KT 06/M03 A2993 RMK A01 T00601030  RH  052%=      5-min Rain = 0
KEA1 080836Z 07005KT 06/M03 A2993 RMK A01 T00611029  RH  053%=      5-min Rain = 0
KEA1 080837Z 07005KT 06/M03 A2993 RMK A01 T00621028  RH  052%=      5-min Rain = 0
KEA1 080838Z 07004KT 06/M03 A2994 RMK A01 T00631028  RH  052%=      5-min Rain = 0
KEA1 080839Z 06004KT 06/M03 A2994 RMK A01 T00631028  RH  052%=      5-min Rain = 0
KEA1 080840Z 06004KT 06/M03 A2994 RMK A01 T00631028  RH  052%=      5-min Rain = 0
KEA1 080841Z 06004KT 06/M03 A2994 RMK A01 T00631028  RH  052%=      5-min Rain = 0
KEA1 080842Z 05004KT 06/M03 A2994 RMK A01 T00631028  RH  052%=      5-min Rain = 0
KEA1 080843Z 04004KT 06/M03 A2994 RMK A01 T00621029  RH  052%=      5-min Rain = 0
KEA1 080844Z 03005KT 06/M03 A2994 RMK A01 T00611031  RH  052%=      5-min Rain = 0
KEA1 080845Z 03005KT 06/M03 A2994 RMK A01 T00581033  RH  052%=      5-min Rain = 0
KEA1 080846Z 03006KT 06/M03 A2994 RMK A01 T00561034  RH  052%=      5-min Rain = 0
KEA1 080847Z 02006KT 05/M04 A2994 RMK A01 T00541036  RH  052%=      5-min Rain = 0
KEA1 080848Z 02006KT 05/M04 A2994 RMK A01 T00501039  RH  053%=      5-min Rain = 0
KEA1 080849Z 02005KT 05/M04 A2994 RMK A01 T00471037  RH  054%=      5-min Rain = 0
KEA1 080850Z 03006KT 05/M04 A2994 RMK A01 T00461036  RH  056%=      5-min Rain = 0
KEA1 080851Z 03007KT 05/M03 A2994 RMK A01 T00461034  RH  056%=      5-min Rain = 0
KEA1 080852Z 03007KT 05/M04 A2994 RMK A01 T00471035  RH  056%=      5-min Rain = 0
KEA1 080853Z 02007KT 05/M04 A2994 RMK A01 T00451038  RH  055%=      5-min Rain = 0
KEA1 080854Z 02007KT 04/M04 A2994 RMK A01 T00431039  RH  055%=      5-min Rain = 0
KEA1 080855Z 02007KT 04/M04 A2994 RMK A01 T00411038  RH  056%=      5-min Rain = 0
KEA1 080856Z 03007KT 04/M04 A2994 RMK A01 T00401038  RH  057%=      5-min Rain = 0
KEA1 080857Z 03007KT 04/M04 A2994 RMK A01 T00401038  RH  057%=      5-min Rain = 0
KEA1 080858Z 02006KT 04/M04 A2994 RMK A01 T00391038  RH  057%=      5-min Rain = 0
KEA1 080859Z 03006KT 04/M04 A2994 RMK A01 T00391037  RH  058%=      5-min Rain = 0
KEA1 080900Z 04006KT 04/M04 A2994 RMK A01 T00391036  RH  058%=      5-min Rain = 0
KEA1 080901Z 04006KT 04/M04 A2994 RMK A01 T00401036  RH  058%=      5-min Rain = 0
KEA1 080902Z 04006KT 04/M04 A2994 RMK A01 T00411036  RH  057%=      5-min Rain = 0
KEA1 080903Z 05007KT 04/M04 A2994 RMK A01 T00411036  RH  057%=      5-min Rain = 0
KEA1 080904Z 04007KT 04/M04 A2993 RMK A01 T00421036  RH  057%=      5-min Rain = 0
KEA1 080905Z 03007KT 04/M04 A2993 RMK A01 T00421037  RH  057%=      5-min Rain = 0
KEA1 080906Z 04007KT 04/M04 A2993 RMK A01 T00421036  RH  057%=      5-min Rain = 0
KEA1 080907Z 04007KT 04/M04 A2993 RMK A01 T00421036  RH  057%=      5-min Rain = 0
KEA1 080908Z 04007KT 04/M04 A2993 RMK A01 T00431036  RH  057%=      5-min Rain = 0
KEA1 080909Z 04007KT 04/M04 A2993 RMK A01 T00421036  RH  057%=      5-min Rain = 0
KEA1 080910Z 04007KT 04/M04 A2993 RMK A01 T00421035  RH  057%=      5-min Rain = 0
KEA1 080911Z 04006KT 04/M04 A2993 RMK A01 T00421035  RH  057%=      5-min Rain = 0
KEA1 080912Z 04006KT 04/M04 A2993 RMK A01 T00421036  RH  057%=      5-min Rain = 0
KEA1 080913Z 05006KT 04/M04 A2993 RMK A01 T00421035  RH  057%=      5-min Rain = 0
KEA1 080914Z 06007KT 04/M03 A2993 RMK A01 T00421034  RH  058%=      5-min Rain = 0
KEA1 080915Z 06006KT 04/M03 A2993 RMK A01 T00431034  RH  057%=      5-min Rain = 0
KEA1 080916Z 06006KT 04/M03 A2993 RMK A01 T00431034  RH  057%=      5-min Rain = 0
KEA1 080917Z 06006KT 04/M03 A2993 RMK A01 T00431034  RH  057%=      5-min Rain = 0
KEA1 080918Z 07006KT 04/M03 A2993 RMK A01 T00441033  RH  057%=      5-min Rain = 0
KEA1 080919Z 07006KT 05/M03 A2993 RMK A01 T00451032  RH  057%=      5-min Rain = 0
KEA1 080920Z 08005KT 05/M03 A2993 RMK A01 T00471032  RH  057%=      5-min Rain = 0
KEA1 080921Z 08004KT 05/M03 A2993 RMK A01 T00471033  RH  056%=      5-min Rain = 0
KEA1 080922Z 09003KT 05/M03 A2993 RMK A01 T00471033  RH  056%=      5-min Rain = 0
KEA1 080923Z 09003KT 05/M04 A2993 RMK A01 T00461035  RH  056%=      5-min Rain = 0
KEA1 080924Z 10003KT 04/M04 A2993 RMK A01 T00441037  RH  056%=      5-min Rain = 0
KEA1 080925Z 10003KT 04/M04 A2993 RMK A01 T00411040  RH  056%=      5-min Rain = 0
KEA1 080926Z 11003KT 04/M04 A2993 RMK A01 T00391039  RH  057%=      5-min Rain = 0
KEA1 080927Z 12003KT 04/M04 A2994 RMK A01 T00371040  RH  057%=      5-min Rain = 0
KEA1 080928Z 14002KT 04/M04 A2994 RMK A01 T00361041  RH  057%=      5-min Rain = 0
KEA1 080929Z 13002KT 03/M04 A2994 RMK A01 T00341044  RH  057%=      5-min Rain = 0
KEA1 080930Z 10002KT 03/M04 A2994 RMK A01 T00321041  RH  059%=      5-min Rain = 0
KEA1 080931Z 09002KT 03/M04 A2994 RMK A01 T00341035  RH  061%=      5-min Rain = 0
KEA1 080932Z 09001KT 04/M04 A2994 RMK A01 T00351035  RH  060%=      5-min Rain = 0
KEA1 080933Z 10001KT 04/M04 A2994 RMK A01 T00361036  RH  059%=      5-min Rain = 0
KEA1 080934Z 11001KT 04/M04 A2994 RMK A01 T00371038  RH  058%=      5-min Rain = 0
KEA1 080935Z 11001KT 04/M04 A2994 RMK A01 T00371035  RH  059%=      5-min Rain = 0
KEA1 080936Z 10001KT 04/M03 A2994 RMK A01 T00401031  RH  060%=      5-min Rain = 0
KEA1 080937Z 08002KT 04/M03 A2993 RMK A01 T00411031  RH  060%=      5-min Rain = 0
KEA1 080938Z 07002KT 04/M03 A2993 RMK A01 T00421030  RH  059%=      5-min Rain = 0
KEA1 080939Z 07002KT 04/M03 A2993 RMK A01 T00431030  RH  059%=      5-min Rain = 0
KEA1 080940Z 07002KT 04/M03 A2993 RMK A01 T00441032  RH  058%=      5-min Rain = 0
KEA1 080941Z 08002KT 04/M03 A2993 RMK A01 T00441031  RH  058%=      5-min Rain = 0
KEA1 080942Z 08002KT 04/M03 A2993 RMK A01 T00441030  RH  059%=      5-min Rain = 0
KEA1 080943Z 09002KT 05/M03 A2993 RMK A01 T00451030  RH  058%=      5-min Rain = 0
KEA1 080944Z 09002KT 05/M03 A2993 RMK A01 T00471028  RH  058%=      5-min Rain = 0
KEA1 080945Z 10002KT 05/M03 A2993 RMK A01 T00491028  RH  057%=      5-min Rain = 0
KEA1 080946Z 10002KT 05/M03 A2993 RMK A01 T00511028  RH  057%=      5-min Rain = 0
KEA1 080947Z 10002KT 05/M03 A2993 RMK A01 T00511029  RH  056%=      5-min Rain = 0
KEA1 080948Z 11002KT 05/M03 A2994 RMK A01 T00511029  RH  056%=      5-min Rain = 0
KEA1 080949Z 11002KT 05/M03 A2994 RMK A01 T00511030  RH  056%=      5-min Rain = 0
KEA1 080950Z 11002KT 05/M03 A2994 RMK A01 T00501029  RH  056%=      5-min Rain = 0
KEA1 080951Z 10002KT 05/M03 A2994 RMK A01 T00501029  RH  057%=      5-min Rain = 0
KEA1 080952Z 10002KT 05/M03 A2994 RMK A01 T00501027  RH  057%=      5-min Rain = 0
KEA1 080953Z 10002KT 05/M03 A2994 RMK A01 T00511027  RH  057%=      5-min Rain = 0
KEA1 080954Z 10001KT 05/M03 A2994 RMK A01 T00511030  RH  056%=      5-min Rain = 0
KEA1 080955Z 10001KT 05/M03 A2994 RMK A01 T00501030  RH  056%=      5-min Rain = 0
KEA1 080956Z 10001KT 05/M03 A2994 RMK A01 T00491031  RH  056%=      5-min Rain = 0
KEA1 080957Z 10001KT 05/M03 A2994 RMK A01 T00491029  RH  057%=      5-min Rain = 0
KEA1 080958Z 10001KT 05/M03 A2994 RMK A01 T00481029  RH  057%=      5-min Rain = 0
KEA1 080959Z 11001KT 05/M03 A2994 RMK A01 T00481029  RH  057%=      5-min Rain = 0
KEA1 081000Z 12001KT 05/M03 A2993 RMK A01 T00491029  RH  057%=      5-min Rain = 0
KEA1 081001Z 00000KT 05/M03 A2993 RMK A01 T00491029  RH  057%=      5-min Rain = 0
KEA1 081002Z 00000KT 05/M03 A2993 RMK A01 T00481030  RH  057%=      5-min Rain = 0
KEA1 081003Z 00000KT 05/M03 A2993 RMK A01 T00481030  RH  057%=      5-min Rain = 0
KEA1 081004Z 00000KT 05/M03 A2993 RMK A01 T00481030  RH  057%=      5-min Rain = 0
KEA1 081005Z 00000KT 05/M03 A2993 RMK A01 T00481029  RH  057%=      5-min Rain = 0
KEA1 081006Z 09000KT 05/M03 A2993 RMK A01 T00481028  RH  057%=      5-min Rain = 0
KEA1 081007Z 00000KT 05/M03 A2993 RMK A01 T00501028  RH  057%=      5-min Rain = 0
KEA1 081008Z 00000KT 05/M03 A2993 RMK A01 T00501028  RH  057%=      5-min Rain = 0
KEA1 081009Z 09000KT 05/M03 A2993 RMK A01 T00491031  RH  056%=      5-min Rain = 0
KEA1 081010Z 09001KT 05/M03 A2993 RMK A01 T00481031  RH  057%=      5-min Rain = 0
KEA1 081011Z 08002KT 05/M03 A2993 RMK A01 T00471031  RH  057%=      5-min Rain = 0
KEA1 081012Z 08002KT 05/M03 A2993 RMK A01 T00471031  RH  057%=      5-min Rain = 0
KEA1 081013Z 09002KT 05/M03 A2993 RMK A01 T00461031  RH  057%=      5-min Rain = 0
KEA1 081014Z 09002KT 05/M03 A2993 RMK A01 T00471030  RH  057%=      5-min Rain = 0
KEA1 081015Z 10002KT 05/M03 A2993 RMK A01 T00471030  RH  057%=      5-min Rain = 0
KEA1 081016Z 11001KT 05/M03 A2993 RMK A01 T00471030  RH  057%=      5-min Rain = 0
KEA1 081017Z 11002KT 05/M03 A2993 RMK A01 T00471029  RH  058%=      5-min Rain = 0
KEA1 081018Z 10002KT 05/M03 A2993 RMK A01 T00471028  RH  058%=      5-min Rain = 0
KEA1 081019Z 10001KT 05/M03 A2993 RMK A01 T00481028  RH  058%=      5-min Rain = 0
KEA1 081020Z 11001KT 05/M03 A2993 RMK A01 T00491028  RH  057%=      5-min Rain = 0
KEA1 081021Z 11001KT 05/M03 A2993 RMK A01 T00491029  RH  057%=      5-min Rain = 0
KEA1 081022Z 10001KT 05/M03 A2993 RMK A01 T00491029  RH  057%=      5-min Rain = 0
KEA1 081023Z 09002KT 05/M03 A2993 RMK A01 T00491029  RH  057%=      5-min Rain = 0
KEA1 081024Z 08002KT 05/M03 A2993 RMK A01 T00491029  RH  057%=      5-min Rain = 0
KEA1 081025Z 08002KT 05/M03 A2993 RMK A01 T00491029  RH  057%=      5-min Rain = 0
KEA1 081026Z 08001KT 05/M03 A2993 RMK A01 T00481031  RH  057%=      5-min Rain = 0
KEA1 081027Z 08001KT 05/M03 A2993 RMK A01 T00471031  RH  057%=      5-min Rain = 0
KEA1 081028Z 08002KT 05/M03 A2992 RMK A01 T00461032  RH  057%=      5-min Rain = 0
KEA1 081029Z 08002KT 05/M03 A2992 RMK A01 T00451032  RH  057%=      5-min Rain = 0
KEA1 081030Z 09001KT 04/M03 A2992 RMK A01 T00441034  RH  057%=      5-min Rain = 0
KEA1 081031Z 10002KT 04/M03 A2992 RMK A01 T00431033  RH  058%=      5-min Rain = 0
KEA1 081032Z 11002KT 04/M03 A2992 RMK A01 T00421033  RH  058%=      5-min Rain = 0
KEA1 081033Z 11002KT 04/M03 A2992 RMK A01 T00421033  RH  058%=      5-min Rain = 0
KEA1 081034Z 12002KT 04/M03 A2992 RMK A01 T00411034  RH  058%=      5-min Rain = 0
KEA1 081035Z 12002KT 04/M04 A2992 RMK A01 T00411035  RH  058%=      5-min Rain = 0
KEA1 081036Z 12002KT 04/M03 A2992 RMK A01 T00411033  RH  059%=      5-min Rain = 0
KEA1 081037Z 12002KT 04/M03 A2992 RMK A01 T00411031  RH  060%=      5-min Rain = 0
KEA1 081038Z 12002KT 04/M03 A2992 RMK A01 T00411029  RH  060%=      5-min Rain = 0
KEA1 081039Z 11002KT 04/M03 A2992 RMK A01 T00431030  RH  059%=      5-min Rain = 0
KEA1 081040Z 09002KT 04/M03 A2992 RMK A01 T00441031  RH  058%=      5-min Rain = 0
KEA1 081041Z 08003KT 04/M03 A2992 RMK A01 T00441032  RH  058%=      5-min Rain = 0
KEA1 081042Z 08002KT 04/M03 A2992 RMK A01 T00441032  RH  058%=      5-min Rain = 0
KEA1 081043Z 05002KT 04/M04 A2992 RMK A01 T00431035  RH  057%=      5-min Rain = 0
KEA1 081044Z 03002KT 04/M04 A2992 RMK A01 T00391043  RH  055%=      5-min Rain = 0
KEA1 081045Z 03003KT 03/M05 A2992 RMK A01 T00321052  RH  054%=      5-min Rain = 0
KEA1 081046Z 02002KT 03/M04 A2992 RMK A01 T00301042  RH  059%=      5-min Rain = 0
KEA1 081047Z 02002KT 03/M03 A2992 RMK A01 T00311034  RH  062%=      5-min Rain = 0
KEA1 081048Z 02002KT 03/M03 A2992 RMK A01 T00341031  RH  063%=      5-min Rain = 0
KEA1 081049Z 02001KT 03/M04 A2992 RMK A01 T00341035  RH  060%=      5-min Rain = 0
KEA1 081050Z 02001KT 03/M04 A2992 RMK A01 T00331039  RH  059%=      5-min Rain = 0
KEA1 081051Z 02001KT 03/M04 A2992 RMK A01 T00321035  RH  061%=      5-min Rain = 0
KEA1 081052Z 02001KT 03/M03 A2992 RMK A01 T00331034  RH  062%=      5-min Rain = 0
KEA1 081053Z 02001KT 03/M03 A2992 RMK A01 T00331033  RH  062%=      5-min Rain = 0
KEA1 081054Z 02001KT 04/M03 A2992 RMK A01 T00351032  RH  062%=      5-min Rain = 0
KEA1 081055Z 02002KT 04/M03 A2992 RMK A01 T00361030  RH  062%=      5-min Rain = 0
KEA1 081056Z 02002KT 04/M03 A2992 RMK A01 T00371028  RH  062%=      5-min Rain = 0
KEA1 081057Z 00002KT 04/M03 A2992 RMK A01 T00371034  RH  060%=      5-min Rain = 0
KEA1 081058Z 35003KT 03/M04 A2992 RMK A01 T00331042  RH  058%=      5-min Rain = 0
KEA1 081059Z 34004KT 03/M04 A2992 RMK A01 T00311041  RH  059%=      5-min Rain = 0
KEA1 081100Z 34004KT 03/M05 A2992 RMK A01 T00281045  RH  059%=      5-min Rain = 0
KEA1 081101Z 34004KT 03/M05 A2992 RMK A01 T00251046  RH  060%=      5-min Rain = 0
KEA1 081102Z 35003KT 03/M04 A2992 RMK A01 T00251043  RH  061%=      5-min Rain = 0
KEA1 081103Z 35004KT 03/M04 A2992 RMK A01 T00251041  RH  062%=      5-min Rain = 0
KEA1 081104Z 00003KT 03/M04 A2992 RMK A01 T00261039  RH  062%=      5-min Rain = 0
KEA1 081105Z 00003KT 03/M04 A2992 RMK A01 T00281038  RH  062%=      5-min Rain = 0
KEA1 081106Z 00003KT 03/M04 A2992 RMK A01 T00291038  RH  062%=      5-min Rain = 0
KEA1 081107Z 00003KT 03/M04 A2992 RMK A01 T00301037  RH  062%=      5-min Rain = 0
KEA1 081108Z 01003KT 03/M04 A2992 RMK A01 T00311036  RH  062%=      5-min Rain = 0
KEA1 081109Z 00003KT 03/M04 A2992 RMK A01 T00301038  RH  061%=      5-min Rain = 0
KEA1 081110Z 00004KT 03/M04 A2992 RMK A01 T00301040  RH  060%=      5-min Rain = 0
KEA1 081111Z 00004KT 03/M04 A2993 RMK A01 T00291040  RH  060%=      5-min Rain = 0
KEA1 081112Z 00004KT 03/M04 A2993 RMK A01 T00281040  RH  061%=      5-min Rain = 0
KEA1 081113Z 36004KT 03/M04 A2993 RMK A01 T00281039  RH  061%=      5-min Rain = 0
KEA1 081114Z 35005KT 03/M04 A2993 RMK A01 T00271039  RH  062%=      5-min Rain = 0
KEA1 081115Z 35005KT 03/M04 A2993 RMK A01 T00271039  RH  062%=      5-min Rain = 0
KEA1 081116Z 35005KT 03/M04 A2993 RMK A01 T00261039  RH  062%=      5-min Rain = 0
KEA1 081117Z 35005KT 03/M04 A2993 RMK A01 T00251040  RH  062%=      5-min Rain = 0
KEA1 081118Z 35005KT 03/M04 A2993 RMK A01 T00251039  RH  063%=      5-min Rain = 0
KEA1 081119Z 35004KT 03/M04 A2993 RMK A01 T00251037  RH  064%=      5-min Rain = 0
KEA1 081120Z 35004KT 03/M04 A2993 RMK A01 T00261036  RH  064%=      5-min Rain = 0
KEA1 081121Z 35005KT 03/M04 A2993 RMK A01 T00271036  RH  063%=      5-min Rain = 0
KEA1 081122Z 35005KT 03/M04 A2993 RMK A01 T00281035  RH  063%=      5-min Rain = 0
KEA1 081123Z 36005KT 03/M04 A2993 RMK A01 T00281037  RH  062%=      5-min Rain = 0
KEA1 081124Z 00005KT 03/M04 A2993 RMK A01 T00281037  RH  062%=      5-min Rain = 0
KEA1 081125Z 35005KT 03/M04 A2993 RMK A01 T00281038  RH  062%=      5-min Rain = 0
KEA1 081126Z 35006KT 03/M04 A2993 RMK A01 T00271039  RH  062%=      5-min Rain = 0
KEA1 081127Z 35006KT 03/M04 A2993 RMK A01 T00261038  RH  062%=      5-min Rain = 0
KEA1 081128Z 35006KT 03/M04 A2993 RMK A01 T00261039  RH  062%=      5-min Rain = 0
KEA1 081129Z 35005KT 03/M04 A2993 RMK A01 T00251040  RH  062%=      5-min Rain = 0
KEA1 081130Z 35005KT 02/M04 A2993 RMK A01 T00241041  RH  062%=      5-min Rain = 0
KEA1 081131Z 35004KT 02/M04 A2993 RMK A01 T00231042  RH  063%=      5-min Rain = 0
KEA1 081132Z 35004KT 02/M04 A2993 RMK A01 T00221041  RH  063%=      5-min Rain = 0
KEA1 081133Z 35005KT 02/M04 A2994 RMK A01 T00211042  RH  063%=      5-min Rain = 0
KEA1 081134Z 34005KT 02/M04 A2994 RMK A01 T00211040  RH  064%=      5-min Rain = 0
KEA1 081135Z 34005KT 02/M04 A2994 RMK A01 T00221040  RH  064%=      5-min Rain = 0
KEA1 081136Z 34005KT 02/M04 A2994 RMK A01 T00211041  RH  064%=      5-min Rain = 0
KEA1 081137Z 35006KT 02/M04 A2994 RMK A01 T00211040  RH  064%=      5-min Rain = 0
KEA1 081138Z 35006KT 02/M04 A2994 RMK A01 T00221038  RH  064%=      5-min Rain = 0
KEA1 081139Z 35006KT 02/M04 A2994 RMK A01 T00231038  RH  064%=      5-min Rain = 0
KEA1 081140Z 34006KT 02/M04 A2994 RMK A01 T00231039  RH  064%=      5-min Rain = 0
KEA1 081141Z 34006KT 02/M04 A2994 RMK A01 T00231038  RH  064%=      5-min Rain = 0
KEA1 081142Z 34006KT 02/M04 A2994 RMK A01 T00221037  RH  065%=      5-min Rain = 0
KEA1 081143Z 34006KT 02/M04 A2994 RMK A01 T00231037  RH  065%=      5-min Rain = 0
KEA1 081144Z 34006KT 02/M04 A2994 RMK A01 T00221037  RH  065%=      5-min Rain = 0
KEA1 081145Z 34005KT 02/M04 A2994 RMK A01 T00231036  RH  065%=      5-min Rain = 0
KEA1 081146Z 34006KT 02/M04 A2994 RMK A01 T00231035  RH  065%=      5-min Rain = 0
KEA1 081147Z 34005KT 02/M04 A2994 RMK A01 T00241035  RH  065%=      5-min Rain = 0
KEA1 081148Z 35006KT 02/M03 A2994 RMK A01 T00241034  RH  065%=      5-min Rain = 0
KEA1 081149Z 35005KT 03/M03 A2994 RMK A01 T00251033  RH  066%=      5-min Rain = 0
KEA1 081150Z 35005KT 03/M03 A2994 RMK A01 T00251033  RH  065%=      5-min Rain = 0
KEA1 081151Z 35005KT 03/M03 A2994 RMK A01 T00261032  RH  066%=      5-min Rain = 0
KEA1 081152Z 35006KT 03/M03 A2994 RMK A01 T00271032  RH  065%=      5-min Rain = 0
KEA1 081153Z 35006KT 03/M03 A2994 RMK A01 T00271032  RH  065%=      5-min Rain = 0
KEA1 081154Z 35006KT 03/M03 A2994 RMK A01 T00271032  RH  065%=      5-min Rain = 0
KEA1 081155Z 35006KT 03/M03 A2994 RMK A01 T00271032  RH  065%=      5-min Rain = 0
KEA1 081156Z 35006KT 03/M03 A2994 RMK A01 T00271032  RH  065%=      5-min Rain = 0
KEA1 081157Z 35006KT 03/M03 A2994 RMK A01 T00271032  RH  065%=      5-min Rain = 0
KEA1 081158Z 35006KT 03/M03 A2994 RMK A01 T00271032  RH  065%=      5-min Rain = 0
KEA1 081159Z 36006KT 03/M03 A2994 RMK A01 T00271032  RH  065%=      5-min Rain = 0
KEA1 081200Z 00006KT 03/M03 A2994 RMK A01 T00271031  RH  065%=      5-min Rain = 0
KEA1 081201Z 00005KT 03/M03 A2994 RMK A01 T00281030  RH  066%=      5-min Rain = 0
KEA1 081202Z 00006KT 03/M03 A2994 RMK A01 T00281031  RH  065%=      5-min Rain = 0
KEA1 081203Z 00006KT 03/M03 A2994 RMK A01 T00281031  RH  065%=      5-min Rain = 0
KEA1 081204Z 00006KT 03/M03 A2994 RMK A01 T00281031  RH  065%=      5-min Rain = 0
KEA1 081205Z 35006KT 03/M03 A2994 RMK A01 T00281031  RH  065%=      5-min Rain = 0
KEA1 081206Z 35006KT 03/M03 A2994 RMK A01 T00271032  RH  065%=      5-min Rain = 0
KEA1 081207Z 35007KT 03/M03 A2994 RMK A01 T00271032  RH  065%=      5-min Rain = 0
KEA1 081208Z 35007KT 03/M03 A2994 RMK A01 T00261033  RH  065%=      5-min Rain = 0
KEA1 081209Z 35007KT 03/M03 A2994 RMK A01 T00251033  RH  065%=      5-min Rain = 0
KEA1 081210Z 35007KT 03/M03 A2994 RMK A01 T00251032  RH  066%=      5-min Rain = 0
KEA1 081211Z 36007KT 03/M03 A2994 RMK A01 T00251033  RH  066%=      5-min Rain = 0
KEA1 081212Z 00007KT 02/M03 A2994 RMK A01 T00241032  RH  066%=      5-min Rain = 0
KEA1 081213Z 36006KT 02/M03 A2994 RMK A01 T00241032  RH  067%=      5-min Rain = 0
KEA1 081214Z 35006KT 02/M03 A2994 RMK A01 T00241031  RH  067%=      5-min Rain = 0
KEA1 081215Z 35006KT 02/M03 A2994 RMK A01 T00241031  RH  067%=      5-min Rain = 0
KEA1 081216Z 35006KT 03/M03 A2994 RMK A01 T00251032  RH  066%=      5-min Rain = 0
KEA1 081217Z 35005KT 03/M03 A2994 RMK A01 T00251032  RH  066%=      5-min Rain = 0
KEA1 081218Z 35005KT 03/M03 A2994 RMK A01 T00251032  RH  066%=      5-min Rain = 0
KEA1 081219Z 00005KT 03/M03 A2994 RMK A01 T00261030  RH  066%=      5-min Rain = 0
KEA1 081220Z 00005KT 03/M03 A2994 RMK A01 T00271029  RH  066%=      5-min Rain = 0
KEA1 081221Z 01005KT 03/M03 A2994 RMK A01 T00281030  RH  066%=      5-min Rain = 0
KEA1 081222Z 01005KT 03/M03 A2994 RMK A01 T00281030  RH  066%=      5-min Rain = 0
KEA1 081223Z 01005KT 03/M03 A2994 RMK A01 T00281030  RH  066%=      5-min Rain = 0
KEA1 081224Z 01005KT 03/M03 A2994 RMK A01 T00281030  RH  066%=      5-min Rain = 0
KEA1 081225Z 00004KT 03/M03 A2994 RMK A01 T00291029  RH  066%=      5-min Rain = 0
KEA1 081226Z 01004KT 03/M03 A2994 RMK A01 T00291029  RH  066%=      5-min Rain = 0
KEA1 081227Z 01004KT 03/M03 A2994 RMK A01 T00301028  RH  066%=      5-min Rain = 0
KEA1 081228Z 00004KT 03/M03 A2994 RMK A01 T00301028  RH  066%=      5-min Rain = 0
KEA1 081229Z 00004KT 03/M03 A2994 RMK A01 T00301029  RH  065%=      5-min Rain = 0
KEA1 081230Z 35004KT 03/M03 A2994 RMK A01 T00301029  RH  065%=      5-min Rain = 0
KEA1 081231Z 35004KT 03/M03 A2994 RMK A01 T00301029  RH  065%=      5-min Rain = 0
KEA1 081232Z 35004KT 03/M03 A2994 RMK A01 T00301028  RH  065%=      5-min Rain = 0
KEA1 081233Z 34004KT 03/M03 A2995 RMK A01 T00301029  RH  065%=      5-min Rain = 0
KEA1 081234Z 34004KT 03/M03 A2995 RMK A01 T00291031  RH  065%=      5-min Rain = 0
KEA1 081235Z 35003KT 03/M03 A2995 RMK A01 T00291031  RH  065%=      5-min Rain = 0
KEA1 081236Z 35003KT 03/M03 A2995 RMK A01 T00291031  RH  065%=      5-min Rain = 0
KEA1 081237Z 35003KT 03/M03 A2994 RMK A01 T00291030  RH  065%=      5-min Rain = 0
KEA1 081238Z 35003KT 03/M03 A2994 RMK A01 T00291030  RH  065%=      5-min Rain = 0
KEA1 081239Z 35003KT 03/M03 A2994 RMK A01 T00291030  RH  065%=      5-min Rain = 0
KEA1 081240Z 34002KT 03/M03 A2994 RMK A01 T00291033  RH  064%=      5-min Rain = 0
KEA1 081241Z 34003KT 03/M04 A2994 RMK A01 T00281036  RH  063%=      5-min Rain = 0
KEA1 081242Z 34003KT 03/M04 A2994 RMK A01 T00271035  RH  064%=      5-min Rain = 0
KEA1 081243Z 34003KT 03/M03 A2994 RMK A01 T00261034  RH  065%=      5-min Rain = 0
KEA1 081244Z 34003KT 03/M03 A2995 RMK A01 T00261034  RH  065%=      5-min Rain = 0
KEA1 081245Z 33003KT 03/M03 A2995 RMK A01 T00261034  RH  065%=      5-min Rain = 0
KEA1 081246Z 33004KT 03/M03 A2995 RMK A01 T00261034  RH  065%=      5-min Rain = 0
KEA1 081247Z 34004KT 03/M03 A2995 RMK A01 T00271032  RH  065%=      5-min Rain = 0
KEA1 081248Z 33004KT 03/M03 A2995 RMK A01 T00281033  RH  064%=      5-min Rain = 0
KEA1 081249Z 33004KT 03/M03 A2995 RMK A01 T00291032  RH  064%=      5-min Rain = 0
KEA1 081250Z 34004KT 03/M03 A2995 RMK A01 T00291033  RH  064%=      5-min Rain = 0
KEA1 081251Z 34004KT 03/M03 A2995 RMK A01 T00301033  RH  063%=      5-min Rain = 0
KEA1 081252Z 35004KT 03/M03 A2995 RMK A01 T00311032  RH  063%=      5-min Rain = 0
KEA1 081253Z 35004KT 03/M03 A2995 RMK A01 T00321030  RH  063%=      5-min Rain = 0
KEA1 081254Z 34004KT 03/M03 A2995 RMK A01 T00331031  RH  063%=      5-min Rain = 0
KEA1 081255Z 34003KT 03/M03 A2995 RMK A01 T00341031  RH  062%=      5-min Rain = 0
KEA1 081256Z 34003KT 03/M03 A2995 RMK A01 T00341032  RH  062%=      5-min Rain = 0
KEA1 081257Z 34003KT 04/M03 A2995 RMK A01 T00351031  RH  062%=      5-min Rain = 0
KEA1 081258Z 34003KT 04/M03 A2995 RMK A01 T00351031  RH  062%=      5-min Rain = 0
KEA1 081259Z 34003KT 04/M03 A2995 RMK A01 T00351030  RH  062%=      5-min Rain = 0
KEA1 081300Z 34004KT 04/M03 A2995 RMK A01 T00361030  RH  062%=      5-min Rain = 0
KEA1 081301Z 34004KT 04/M03 A2995 RMK A01 T00361030  RH  062%=      5-min Rain = 0
KEA1 081302Z 34004KT 04/M03 A2995 RMK A01 T00371030  RH  062%=      5-min Rain = 0
KEA1 081303Z 33004KT 04/M03 A2995 RMK A01 T00381029  RH  061%=      5-min Rain = 0
KEA1 081304Z 33004KT 04/M03 A2995 RMK A01 T00391029  RH  061%=      5-min Rain = 0
KEA1 081305Z 32004KT 04/M03 A2995 RMK A01 T00401029  RH  061%=      5-min Rain = 0
KEA1 081306Z 32004KT 04/M03 A2995 RMK A01 T00411028  RH  061%=      5-min Rain = 0
KEA1 081307Z 32003KT 04/M03 A2995 RMK A01 T00411028  RH  061%=      5-min Rain = 0
KEA1 081308Z 32003KT 04/M03 A2995 RMK A01 T00431027  RH  061%=      5-min Rain = 0
KEA1 081309Z 32003KT 04/M03 A2995 RMK A01 T00441026  RH  060%=      5-min Rain = 0
KEA1 081310Z 33003KT 05/M03 A2995 RMK A01 T00451026  RH  060%=      5-min Rain = 0
KEA1 081311Z 33002KT 05/M03 A2995 RMK A01 T00461025  RH  060%=      5-min Rain = 0
KEA1 081312Z 35003KT 05/M03 A2995 RMK A01 T00481025  RH  059%=      5-min Rain = 0
KEA1 081313Z 36004KT 05/M02 A2995 RMK A01 T00491024  RH  059%=      5-min Rain = 0
KEA1 081314Z 36003KT 05/M02 A2995 RMK A01 T00501023  RH  059%=      5-min Rain = 0
KEA1 081315Z 36002KT 05/M02 A2995 RMK A01 T00521023  RH  059%=      5-min Rain = 0
KEA1 081316Z 35002KT 05/M02 A2995 RMK A01 T00531023  RH  058%=      5-min Rain = 0
KEA1 081317Z 34001KT 05/M02 A2995 RMK A01 T00541023  RH  058%=      5-min Rain = 0
KEA1 081318Z 35001KT 06/M02 A2995 RMK A01 T00561022  RH  057%=      5-min Rain = 0
KEA1 081319Z 34002KT 06/M02 A2995 RMK A01 T00571022  RH  057%=      5-min Rain = 0
KEA1 081320Z 34002KT 06/M02 A2995 RMK A01 T00591021  RH  056%=      5-min Rain = 0
KEA1 081321Z 34002KT 06/M02 A2995 RMK A01 T00601021  RH  056%=      5-min Rain = 0
KEA1 081322Z 34002KT 06/M02 A2995 RMK A01 T00621020  RH  056%=      5-min Rain = 0
KEA1 081323Z 00001KT 06/M02 A2995 RMK A01 T00631020  RH  055%=      5-min Rain = 0
KEA1 081324Z 01001KT 07/M02 A2995 RMK A01 T00651019  RH  055%=      5-min Rain = 0
KEA1 081325Z 01001KT 07/M02 A2995 RMK A01 T00681018  RH  054%=      5-min Rain = 0
KEA1 081326Z 02000KT 07/M02 A2995 RMK A01 T00701017  RH  054%=      5-min Rain = 0
KEA1 081327Z 02001KT 07/M02 A2995 RMK A01 T00721018  RH  053%=      5-min Rain = 0
KEA1 081328Z 02001KT 08/M02 A2995 RMK A01 T00751016  RH  053%=      5-min Rain = 0
KEA1 081329Z 02002KT 08/M02 A2994 RMK A01 T00771016  RH  052%=      5-min Rain = 0
KEA1 081330Z 02002KT 08/M02 A2994 RMK A01 T00791016  RH  051%=      5-min Rain = 0
KEA1 081331Z 03001KT 08/M02 A2994 RMK A01 T00801016  RH  051%=      5-min Rain = 0
KEA1 081332Z 05001KT 08/M02 A2994 RMK A01 T00821015  RH  050%=      5-min Rain = 0
KEA1 081333Z 05002KT 08/M02 A2994 RMK A01 T00831015  RH  050%=      5-min Rain = 0
KEA1 081334Z 05001KT 08/M02 A2995 RMK A01 T00841016  RH  049%=      5-min Rain = 0
KEA1 081335Z 05002KT 09/M02 A2995 RMK A01 T00851015  RH  049%=      5-min Rain = 0
KEA1 081336Z 04002KT 09/M02 A2995 RMK A01 T00861015  RH  049%=      5-min Rain = 0
KEA1 081337Z 05002KT 09/M02 A2995 RMK A01 T00871015  RH  049%=      5-min Rain = 0
KEA1 081338Z 04002KT 09/M02 A2995 RMK A01 T00891015  RH  048%=      5-min Rain = 0
KEA1 081339Z 04003KT 09/M02 A2995 RMK A01 T00891015  RH  048%=      5-min Rain = 0
KEA1 081340Z 04003KT 09/M02 A2995 RMK A01 T00881015  RH  049%=      5-min Rain = 0
KEA1 081341Z 04002KT 09/M01 A2995 RMK A01 T00881014  RH  049%=      5-min Rain = 0
KEA1 081342Z 04002KT 09/M01 A2995 RMK A01 T00881013  RH  049%=      5-min Rain = 0
KEA1 081343Z 05003KT 09/M01 A2995 RMK A01 T00911012  RH  049%=      5-min Rain = 0
KEA1 081344Z 05002KT 09/M01 A2995 RMK A01 T00921012  RH  048%=      5-min Rain = 0
KEA1 081345Z 05002KT 09/M01 A2995 RMK A01 T00921012  RH  048%=      5-min Rain = 0
KEA1 081346Z 05002KT 09/M01 A2995 RMK A01 T00941011  RH  048%=      5-min Rain = 0
KEA1 081347Z 05002KT 10/M01 A2995 RMK A01 T00951011  RH  047%=      5-min Rain = 0
KEA1 081348Z 04002KT 10/M01 A2995 RMK A01 T00971010  RH  047%=      5-min Rain = 0
KEA1 081349Z 05002KT 10/M01 A2995 RMK A01 T00991010  RH  047%=      5-min Rain = 0
KEA1 081350Z 05003KT 10/M01 A2995 RMK A01 T01011009  RH  046%=      5-min Rain = 0
KEA1 081351Z 05002KT 10/M01 A2995 RMK A01 T01021010  RH  046%=      5-min Rain = 0
KEA1 081352Z 04003KT 10/M01 A2995 RMK A01 T01021009  RH  046%=      5-min Rain = 0
KEA1 081353Z 05002KT 10/M01 A2995 RMK A01 T01031008  RH  046%=      5-min Rain = 0
KEA1 081354Z 06003KT 11/M01 A2995 RMK A01 T01061008  RH  045%=      5-min Rain = 0
KEA1 081355Z 05002KT 11/M01 A2995 RMK A01 T01061008  RH  045%=      5-min Rain = 0
KEA1 081356Z 06002KT 11/M01 A2995 RMK A01 T01081007  RH  045%=      5-min Rain = 0
KEA1 081357Z 06002KT 11/M01 A2995 RMK A01 T01091007  RH  045%=      5-min Rain = 0
KEA1 081358Z 06003KT 11/M01 A2995 RMK A01 T01081008  RH  045%=      5-min Rain = 0
KEA1 081359Z 07003KT 11/M01 A2995 RMK A01 T01081007  RH  045%=      5-min Rain = 0
KEA1 081400Z 08003KT 11/M01 A2995 RMK A01 T01091007  RH  045%=      5-min Rain = 0
KEA1 081401Z 06003KT 11/M01 A2995 RMK A01 T01101006  RH  044%=      5-min Rain = 0
KEA1 081402Z 07003KT 11/M01 A2995 RMK A01 T01121007  RH  044%=      5-min Rain = 0
KEA1 081403Z 09003KT 11/M01 A2995 RMK A01 T01131006  RH  044%=      5-min Rain = 0
KEA1 081404Z 08003KT 11/M01 A2995 RMK A01 T01131006  RH  044%=      5-min Rain = 0
KEA1 081405Z 07002KT 11/M01 A2995 RMK A01 T01121006  RH  044%=      5-min Rain = 0
KEA1 081406Z 08003KT 11/M01 A2995 RMK A01 T01131006  RH  044%=      5-min Rain = 0
KEA1 081407Z 10002KT 12/M00 A2995 RMK A01 T01151004  RH  044%=      5-min Rain = 0
KEA1 081408Z 10003KT 12/M00 A2995 RMK A01 T01191003  RH  043%=      5-min Rain = 0
KEA1 081409Z 11004KT 12/M00 A2995 RMK A01 T01221003  RH  042%=      5-min Rain = 0
KEA1 081410Z 10003KT 12/M00 A2995 RMK A01 T01221003  RH  042%=      5-min Rain = 0
KEA1 081411Z 12003KT 12/M00 A2995 RMK A01 T01221003  RH  042%=      5-min Rain = 0
KEA1 081412Z 13003KT 12/M00 A2995 RMK A01 T01241002  RH  042%=      5-min Rain = 0
KEA1 081413Z 14004KT 13/M00 A2995 RMK A01 T01261003  RH  041%=      5-min Rain = 0
KEA1 081414Z 13005KT 13/M00 A2995 RMK A01 T01261004  RH  041%=      5-min Rain = 0
KEA1 081415Z 12004KT 13/M00 A2995 RMK A01 T01251003  RH  041%=      5-min Rain = 0
KEA1 081416Z 11002KT 13/M00 A2995 RMK A01 T01261002  RH  041%=      5-min Rain = 0
KEA1 081417Z 12005KT 13/M00 A2995 RMK A01 T01271002  RH  041%=      5-min Rain = 0
KEA1 081418Z 14006KT 13/M00 A2995 RMK A01 T01291002  RH  040%=      5-min Rain = 0
KEA1 081419Z 13007KT 13/M00 A2995 RMK A01 T01291003  RH  040%=      5-min Rain = 0
KEA1 081420Z 13005KT 13/M00 A2995 RMK A01 T01261003  RH  041%=      5-min Rain = 0
KEA1 081421Z 12005KT 13/M00 A2995 RMK A01 T01281002  RH  041%=      5-min Rain = 0
KEA1 081422Z 13005KT 13/M00 A2995 RMK A01 T01291002  RH  040%=      5-min Rain = 0
KEA1 081423Z 13007KT 13/M00 A2995 RMK A01 T01331001  RH  040%=      5-min Rain = 0
KEA1 081424Z 13008KT 13/M00 A2995 RMK A01 T01331002  RH  039%=      5-min Rain = 0
KEA1 081425Z 13006KT 13/M00 A2995 RMK A01 T01321002  RH  040%=      5-min Rain = 0
KEA1 081426Z 13007KT 13/M00 A2995 RMK A01 T01331002  RH  040%=      5-min Rain = 0
KEA1 081427Z 13004KT 13/M00 A2995 RMK A01 T01341001  RH  039%=      5-min Rain = 0
KEA1 081428Z 11005KT 14/00 A2995 RMK A01 T01370000  RH  039%=      5-min Rain = 0
KEA1 081429Z 12005KT 14/00 A2995 RMK A01 T013800-0  RH  039%=      5-min Rain = 0
KEA1 081430Z 12006KT 14/M00 A2995 RMK A01 T01391001  RH  038%=      5-min Rain = 0
KEA1 081431Z 12005KT 14/00 A2995 RMK A01 T013900-0  RH  038%=      5-min Rain = 0
KEA1 081432Z 12006KT 14/00 A2995 RMK A01 T014100-0  RH  038%=      5-min Rain = 0
KEA1 081433Z 14007KT 14/M00 A2995 RMK A01 T01401002  RH  038%=      5-min Rain = 0
KEA1 081434Z 12007KT 14/M00 A2995 RMK A01 T01391001  RH  038%=      5-min Rain = 0
KEA1 081435Z 11008KT 14/M00 A2995 RMK A01 T01391001  RH  038%=      5-min Rain = 0
KEA1 081436Z 12008KT 14/M00 A2995 RMK A01 T01411001  RH  038%=      5-min Rain = 0
KEA1 081437Z 12008KT 14/M00 A2995 RMK A01 T01421001  RH  037%=      5-min Rain = 0
KEA1 081438Z 12008KT 14/M00 A2995 RMK A01 T01431001  RH  037%=      5-min Rain = 0
KEA1 081439Z 13008KT 14/M00 A2995 RMK A01 T01421002  RH  037%=      5-min Rain = 0
KEA1 081440Z 13008KT 14/M00 A2995 RMK A01 T01401002  RH  038%=      5-min Rain = 0
KEA1 081441Z 14008KT 14/M00 A2995 RMK A01 T01411001  RH  038%=      5-min Rain = 0
KEA1 081442Z 14008KT 14/M00 A2995 RMK A01 T01421002  RH  037%=      5-min Rain = 0
KEA1 081443Z 14008KT 14/M00 A2995 RMK A01 T01421001  RH  037%=      5-min Rain = 0
KEA1 081444Z 14008KT 14/M00 A2995 RMK A01 T01441001  RH  037%=      5-min Rain = 0
KEA1 081445Z 13006KT 15/M00 A2995 RMK A01 T01461001  RH  037%=      5-min Rain = 0
KEA1 081446Z 13009KT 15/00 A2995 RMK A01 T01480001  RH  037%=      5-min Rain = 0
KEA1 081447Z 14008KT 15/M00 A2995 RMK A01 T01481001  RH  036%=      5-min Rain = 0
KEA1 081448Z 15008KT 15/M00 A2995 RMK A01 T01451001  RH  037%=      5-min Rain = 0
KEA1 081449Z 13009KT 15/00 A2995 RMK A01 T014500-0  RH  037%=      5-min Rain = 0
KEA1 081450Z 14007KT 15/00 A2995 RMK A01 T01450000  RH  037%=      5-min Rain = 0
KEA1 081451Z 14009KT 15/00 A2995 RMK A01 T01480002  RH  037%=      5-min Rain = 0
KEA1 081452Z 14009KT 15/00 A2995 RMK A01 T01510001  RH  036%=      5-min Rain = 0
KEA1 081453Z 13009KT 15/00 A2995 RMK A01 T01510000  RH  036%=      5-min Rain = 0
KEA1 081454Z 13010KT 15/00 A2995 RMK A01 T01500001  RH  036%=      5-min Rain = 0
KEA1 081455Z 13009KT 15/M00 A2995 RMK A01 T01491001  RH  036%=      5-min Rain = 0
KEA1 081456Z 13010KT 15/00 A2995 RMK A01 T014900-0  RH  036%=      5-min Rain = 0
KEA1 081457Z 12010KT 15/00 A2995 RMK A01 T01500000  RH  036%=      5-min Rain = 0
KEA1 081458Z 13008KT 15/00 A2995 RMK A01 T01500000  RH  036%=      5-min Rain = 0
KEA1 081459Z 14010KT 15/00 A2995 RMK A01 T015000-0  RH  036%=      5-min Rain = 0
KEA1 081500Z 12008KT 15/00 A2995 RMK A01 T015100-0  RH  036%=      5-min Rain = 0
KEA1 081501Z 13007KT 15/00 A2995 RMK A01 T01530002  RH  036%=      5-min Rain = 0
KEA1 081502Z 14009KT 16/00 A2995 RMK A01 T01560002  RH  035%=      5-min Rain = 0
KEA1 081503Z 13010KT 16/00 A2995 RMK A01 T015500-0  RH  035%=      5-min Rain = 0
KEA1 081504Z 12009KT 15/M00 A2995 RMK A01 T01541003  RH  034%=      5-min Rain = 0
KEA1 081505Z 12009KT 15/M00 A2995 RMK A01 T01541002  RH  035%=      5-min Rain = 0
KEA1 081506Z 13009KT 16/M00 A2995 RMK A01 T01551001  RH  034%=      5-min Rain = 0
KEA1 081507Z 14010KT 16/00 A2995 RMK A01 T015600-0  RH  034%=      5-min Rain = 0
KEA1 081508Z 14011KT 16/M00 A2995 RMK A01 T01551001  RH  034%=      5-min Rain = 0
KEA1 081509Z 13009KT 16/M00 A2995 RMK A01 T01551003  RH  034%=      5-min Rain = 0
KEA1 081510Z 13009KT 16/M00 A2995 RMK A01 T01561003  RH  034%=      5-min Rain = 0
KEA1 081511Z 13009KT 16/M00 A2995 RMK A01 T01561003  RH  034%=      5-min Rain = 0
KEA1 081512Z 13011KT 16/M00 A2994 RMK A01 T01551003  RH  034%=      5-min Rain = 0
KEA1 081513Z 13009KT 15/M00 A2994 RMK A01 T01541004  RH  034%=      5-min Rain = 0
KEA1 081514Z 12007KT 15/M00 A2995 RMK A01 T01541003  RH  034%=      5-min Rain = 0
KEA1 081515Z 12010KT 16/M00 A2995 RMK A01 T01551002  RH  034%=      5-min Rain = 0
KEA1 081516Z 11009KT 16/M00 A2995 RMK A01 T01561003  RH  034%=      5-min Rain = 0
KEA1 081517Z 11008KT 16/M00 A2995 RMK A01 T01571003  RH  034%=      5-min Rain = 0
KEA1 081518Z 10009KT 16/M01 A2995 RMK A01 T01591005  RH  033%=      5-min Rain = 0
KEA1 081519Z 11008KT 16/M01 A2995 RMK A01 T01591005  RH  033%=      5-min Rain = 0
KEA1 081520Z 12011KT 16/M01 A2995 RMK A01 T01601005  RH  032%=      5-min Rain = 0
KEA1 081521Z 11012KT 16/M01 A2995 RMK A01 T01611006  RH  032%=      5-min Rain = 0
KEA1 081522Z 11010KT 16/M01 A2995 RMK A01 T01601009  RH  032%=      5-min Rain = 0
KEA1 081523Z 11008KT 16/M01 A2995 RMK A01 T01591009  RH  032%=      5-min Rain = 0
KEA1 081524Z 10007KT 16/M01 A2995 RMK A01 T01591007  RH  032%=      5-min Rain = 0
KEA1 081525Z 10009KT 16/M01 A2995 RMK A01 T01611008  RH  032%=      5-min Rain = 0
KEA1 081526Z 11009KT 16/M01 A2995 RMK A01 T01601009  RH  031%=      5-min Rain = 0
KEA1 081527Z 11009KT 16/M01 A2995 RMK A01 T01611008  RH  032%=      5-min Rain = 0
KEA1 081528Z 11010KT 16/M01 A2995 RMK A01 T01591008  RH  032%=      5-min Rain = 0
KEA1 081529Z 10009KT 16/M01 A2995 RMK A01 T01591007  RH  032%=      5-min Rain = 0
KEA1 081530Z 10010KT 16/M01 A2995 RMK A01 T01621005  RH  032%=      5-min Rain = 0
KEA1 081531Z 10007KT 16/M01 A2995 RMK A01 T01621006  RH  032%=      5-min Rain = 0
KEA1 081532Z 12009KT 16/M00 A2995 RMK A01 T01631004  RH  032%=      5-min Rain = 0
KEA1 081533Z 11008KT 17/M00 A2995 RMK A01 T01651003  RH  032%=      5-min Rain = 0
KEA1 081534Z 12009KT 17/M00 A2995 RMK A01 T01661003  RH  032%=      5-min Rain = 0
KEA1 081535Z 11009KT 17/M00 A2995 RMK A01 T01651003  RH  032%=      5-min Rain = 0
KEA1 081536Z 12010KT 17/M00 A2995 RMK A01 T01651001  RH  032%=      5-min Rain = 0
KEA1 081537Z 13010KT 16/M00 A2995 RMK A01 T01641002  RH  032%=      5-min Rain = 0
KEA1 081538Z 12011KT 16/M00 A2994 RMK A01 T01621002  RH  033%=      5-min Rain = 0
KEA1 081539Z 13011KT 16/M00 A2995 RMK A01 T01621002  RH  033%=      5-min Rain = 0
KEA1 081540Z 12008KT 16/M00 A2995 RMK A01 T01601002  RH  033%=      5-min Rain = 0
KEA1 081541Z 13009KT 16/00 A2995 RMK A01 T016200-0  RH  033%=      5-min Rain = 0
KEA1 081542Z 12007KT 16/00 A2995 RMK A01 T01640001  RH  033%=      5-min Rain = 0
KEA1 081543Z 11008KT 17/00 A2995 RMK A01 T01680003  RH  033%=      5-min Rain = 0
KEA1 081544Z 12010KT 17/00 A2995 RMK A01 T01710002  RH  032%=      5-min Rain = 0
KEA1 081545Z 11009KT 17/00 A2995 RMK A01 T01720003  RH  032%=      5-min Rain = 0
KEA1 081546Z 12007KT 17/00 A2995 RMK A01 T01720003  RH  032%=      5-min Rain = 0
KEA1 081547Z 11008KT 17/00 A2995 RMK A01 T01720003  RH  032%=      5-min Rain = 0
KEA1 081548Z 12011KT 17/00 A2994 RMK A01 T01690001  RH  032%=      5-min Rain = 0
KEA1 081549Z 12010KT 17/00 A2994 RMK A01 T01670001  RH  032%=      5-min Rain = 0
KEA1 081550Z 15010KT 17/M00 A2994 RMK A01 T01691001  RH  032%=      5-min Rain = 0
KEA1 081551Z 14009KT 17/M00 A2994 RMK A01 T01691002  RH  031%=      5-min Rain = 0
KEA1 081552Z 12007KT 17/M00 A2994 RMK A01 T01681002  RH  032%=      5-min Rain = 0
KEA1 081553Z 12009KT 17/M00 A2994 RMK A01 T01701001  RH  031%=      5-min Rain = 0
KEA1 081554Z 12010KT 17/M00 A2994 RMK A01 T01711001  RH  031%=      5-min Rain = 0
KEA1 081555Z 13010KT 17/M00 A2994 RMK A01 T01721001  RH  031%=      5-min Rain = 0
KEA1 081556Z 14011KT 18/00 A2994 RMK A01 T01750000  RH  031%=      5-min Rain = 0
KEA1 081557Z 13009KT 17/M00 A2994 RMK A01 T01731002  RH  031%=      5-min Rain = 0
KEA1 081558Z 13009KT 17/M00 A2994 RMK A01 T01711003  RH  031%=      5-min Rain = 0
KEA1 081559Z 15007KT 17/M00 A2994 RMK A01 T01711004  RH  031%=      5-min Rain = 0
KEA1 081600Z 16008KT 17/M00 A2994 RMK A01 T01741001  RH  031%=      5-min Rain = 0
KEA1 081601Z 14009KT 18/00 A2994 RMK A01 T01760000  RH  030%=      5-min Rain = 0
KEA1 081602Z 14008KT 18/00 A2994 RMK A01 T01770001  RH  030%=      5-min Rain = 0
KEA1 081603Z 14007KT 18/00 A2994 RMK A01 T01770001  RH  030%=      5-min Rain = 0
KEA1 081604Z 15011KT 18/00 A2994 RMK A01 T01810001  RH  030%=      5-min Rain = 0
KEA1 081605Z 16010KT 18/M00 A2994 RMK A01 T01801003  RH  029%=      5-min Rain = 0
KEA1 081606Z 16009KT 18/M00 A2994 RMK A01 T01781004  RH  029%=      5-min Rain = 0
KEA1 081607Z 16010KT 18/M01 A2994 RMK A01 T01761006  RH  029%=      5-min Rain = 0
KEA1 081608Z 15007KT 17/M01 A2994 RMK A01 T01741006  RH  030%=      5-min Rain = 0
KEA1 081609Z 15010KT 17/M00 A2994 RMK A01 T01731002  RH  030%=      5-min Rain = 0
KEA1 081610Z 16006KT 17/M00 A2994 RMK A01 T01741004  RH  030%=      5-min Rain = 0
KEA1 081611Z 14007KT 17/M00 A2994 RMK A01 T01731002  RH  030%=      5-min Rain = 0
KEA1 081612Z 14009KT 18/M00 A2994 RMK A01 T01761002  RH  030%=      5-min Rain = 0
KEA1 081613Z 14010KT 18/M00 A2994 RMK A01 T01791002  RH  029%=      5-min Rain = 0
KEA1 081614Z 14009KT 18/00 A2994 RMK A01 T018200-0  RH  029%=      5-min Rain = 0
KEA1 081615Z 15009KT 19/M00 A2994 RMK A01 T01851001  RH  028%=      5-min Rain = 0
KEA1 081616Z 16007KT 18/M00 A2994 RMK A01 T01811002  RH  029%=      5-min Rain = 0
KEA1 081617Z 15007G12KT 18/M00 A2994 RMK A01 T01801001  RH  029%=      5-min Rain = 0
KEA1 081618Z 15011KT 18/M00 A2994 RMK A01 T01831003  RH  029%=      5-min Rain = 0
KEA1 081619Z 15010KT 19/M00 A2994 RMK A01 T01861003  RH  028%=      5-min Rain = 0
KEA1 081620Z 16009KT 19/M00 A2994 RMK A01 T01851004  RH  028%=      5-min Rain = 0
KEA1 081621Z 14010KT 18/M01 A2994 RMK A01 T01841005  RH  028%=      5-min Rain = 0
KEA1 081622Z 14009KT 18/M01 A2994 RMK A01 T01831005  RH  028%=      5-min Rain = 0
KEA1 081623Z 14007KT 18/M01 A2994 RMK A01 T01831005  RH  028%=      5-min Rain = 0
KEA1 081624Z 13007KT 18/M01 A2994 RMK A01 T01811006  RH  028%=      5-min Rain = 0
KEA1 081625Z 15008KT 18/M01 A2994 RMK A01 T01841005  RH  028%=      5-min Rain = 0
KEA1 081626Z 15007G13KT 19/M01 A2994 RMK A01 T01881005  RH  027%=      5-min Rain = 0
KEA1 081627Z 15011KT 19/M01 A2994 RMK A01 T01901006  RH  027%=      5-min Rain = 0
KEA1 081628Z 15011KT 19/M01 A2994 RMK A01 T01891007  RH  027%=      5-min Rain = 0
KEA1 081629Z 13007KT 19/M01 A2994 RMK A01 T01871008  RH  027%=      5-min Rain = 0
KEA1 081630Z 15009KT 19/M01 A2994 RMK A01 T01851010  RH  027%=      5-min Rain = 0
KEA1 081631Z 15010KT 18/M01 A2994 RMK A01 T01841011  RH  027%=      5-min Rain = 0
KEA1 081632Z 15010KT 19/M01 A2994 RMK A01 T01851013  RH  026%=      5-min Rain = 0
KEA1 081633Z 15009KT 19/M01 A2994 RMK A01 T01861012  RH  026%=      5-min Rain = 0
KEA1 081634Z 16009KT 19/M01 A2994 RMK A01 T01881012  RH  026%=      5-min Rain = 0
KEA1 081635Z 16011KT 19/M01 A2993 RMK A01 T01881013  RH  026%=      5-min Rain = 0
KEA1 081636Z 16008KT 19/M01 A2993 RMK A01 T01881013  RH  026%=      5-min Rain = 0
KEA1 081637Z 15007KT 19/M01 A2993 RMK A01 T01871013  RH  026%=      5-min Rain = 0
KEA1 081638Z 12009KT 19/M01 A2993 RMK A01 T01891010  RH  026%=      5-min Rain = 0
KEA1 081639Z 13007KT 19/M01 A2993 RMK A01 T01911011  RH  026%=      5-min Rain = 0
KEA1 081640Z 15010KT 19/M01 A2993 RMK A01 T01921013  RH  025%=      5-min Rain = 0
KEA1 081641Z 14008KT 19/M02 A2993 RMK A01 T01921016  RH  024%=      5-min Rain = 0
KEA1 081642Z 12006G11KT 19/M01 A2993 RMK A01 T01911014  RH  025%=      5-min Rain = 0
KEA1 081643Z 10003KT 19/M01 A2993 RMK A01 T01891013  RH  026%=      5-min Rain = 0
KEA1 081644Z 13005G11KT 19/M01 A2993 RMK A01 T01931010  RH  025%=      5-min Rain = 0
KEA1 081645Z 16010KT 20/M01 A2993 RMK A01 T01981009  RH  025%=      5-min Rain = 0
KEA1 081646Z 17011KT 20/M02 A2993 RMK A01 T01991015  RH  024%=      5-min Rain = 0
KEA1 081647Z 18010KT 20/M02 A2993 RMK A01 T01951019  RH  023%=      5-min Rain = 0
KEA1 081648Z 19009KT 19/M02 A2993 RMK A01 T01921020  RH  024%=      5-min Rain = 0
KEA1 081649Z 15008KT 19/M02 A2993 RMK A01 T01911017  RH  024%=      5-min Rain = 0
KEA1 081650Z 14008KT 19/M01 A2993 RMK A01 T01941010  RH  025%=      5-min Rain = 0
KEA1 081651Z 15005KT 20/M01 A2993 RMK A01 T01951011  RH  025%=      5-min Rain = 0
KEA1 081652Z 18007G12KT 19/M01 A2993 RMK A01 T01931011  RH  025%=      5-min Rain = 0
KEA1 081653Z 18008KT 19/M01 A2992 RMK A01 T01931009  RH  026%=      5-min Rain = 0
KEA1 081654Z 15009KT 20/M01 A2992 RMK A01 T01971007  RH  025%=      5-min Rain = 0
KEA1 081655Z 13009KT 20/M01 A2993 RMK A01 T02001008  RH  025%=      5-min Rain = 0
KEA1 081656Z 14008KT 20/M01 A2992 RMK A01 T02001010  RH  024%=      5-min Rain = 0
KEA1 081657Z 16010KT 20/M01 A2992 RMK A01 T01991012  RH  024%=      5-min Rain = 0
KEA1 081658Z 16009KT 20/M02 A2992 RMK A01 T01991016  RH  023%=      5-min Rain = 0
KEA1 081659Z 17006KT 20/M02 A2992 RMK A01 T01981018  RH  023%=      5-min Rain = 0
KEA1 081700Z 15004KT 20/M02 A2992 RMK A01 T01981018  RH  023%=      5-min Rain = 0
KEA1 081701Z 18007KT 20/M02 A2992 RMK A01 T02001017  RH  023%=      5-min Rain = 0
KEA1 081702Z 17007KT 20/M02 A2992 RMK A01 T02001019  RH  023%=      5-min Rain = 0
KEA1 081703Z 14007KT 20/M02 A2992 RMK A01 T02001015  RH  023%=      5-min Rain = 0
KEA1 081704Z 14009KT 20/M01 A2992 RMK A01 T02041013  RH  023%=      5-min Rain = 0
KEA1 081705Z 14009G16KT 21/M01 A2992 RMK A01 T02051013  RH  023%=      5-min Rain = 0
KEA1 081706Z 13015KT 21/M01 A2992 RMK A01 T02061012  RH  023%=      5-min Rain = 0
KEA1 081707Z 15009G15KT 20/M02 A2992 RMK A01 T02041015  RH  023%=      5-min Rain = 0
KEA1 081708Z 14009KT 20/M01 A2992 RMK A01 T02021013  RH  024%=      5-min Rain = 0
KEA1 081709Z 13011KT 21/M01 A2992 RMK A01 T02051013  RH  023%=      5-min Rain = 0
KEA1 081710Z 13011KT 21/M02 A2992 RMK A01 T02071015  RH  023%=      5-min Rain = 0
KEA1 081711Z 15008KT 21/M02 A2992 RMK A01 T02071017  RH  022%=      5-min Rain = 0
KEA1 081712Z 15006KT 21/M02 A2991 RMK A01 T02061017  RH  022%=      5-min Rain = 0
KEA1 081713Z 13008KT 21/M01 A2991 RMK A01 T02061014  RH  023%=      5-min Rain = 0
KEA1 081714Z 15008KT 21/M01 A2991 RMK A01 T02081014  RH  022%=      5-min Rain = 0
KEA1 081715Z 16009KT 21/M02 A2991 RMK A01 T02091017  RH  022%=      5-min Rain = 0
KEA1 081716Z 13010KT 21/M02 A2991 RMK A01 T02081018  RH  022%=      5-min Rain = 0
KEA1 081717Z 14007KT 21/M02 A2991 RMK A01 T02061019  RH  022%=      5-min Rain = 0
KEA1 081718Z 15012KT 21/M02 A2991 RMK A01 T02061019  RH  022%=      5-min Rain = 0
KEA1 081719Z 16007G12KT 21/M02 A2991 RMK A01 T02061020  RH  022%=      5-min Rain = 0
KEA1 081720Z 19007KT 21/M02 A2991 RMK A01 T02051020  RH  022%=      5-min Rain = 0
KEA1 081721Z 14007KT 21/M02 A2991 RMK A01 T02081017  RH  022%=      5-min Rain = 0
KEA1 081722Z 16010KT 21/M02 A2991 RMK A01 T02141020  RH  021%=      5-min Rain = 0
KEA1 081723Z 19007KT 21/M02 A2991 RMK A01 T02141024  RH  020%=      5-min Rain = 0
KEA1 081724Z 20005KT 21/M03 A2991 RMK A01 T02111025  RH  020%=      5-min Rain = 0
KEA1 081725Z 21005KT 21/M03 A2991 RMK A01 T02111025  RH  020%=      5-min Rain = 0
KEA1 081726Z 15006KT 21/M02 A2991 RMK A01 T02121024  RH  020%=      5-min Rain = 0
KEA1 081727Z 13007KT 21/M02 A2991 RMK A01 T02131020  RH  021%=      5-min Rain = 0
KEA1 081728Z 11007KT 22/M02 A2991 RMK A01 T02161020  RH  021%=      5-min Rain = 0
KEA1 081729Z 12006KT 22/M02 A2991 RMK A01 T02161021  RH  020%=      5-min Rain = 0
KEA1 081730Z 17010KT 22/M02 A2991 RMK A01 T02181019  RH  020%=      5-min Rain = 0
KEA1 081731Z 17008KT 22/M02 A2991 RMK A01 T02181022  RH  020%=      5-min Rain = 0
KEA1 081732Z 17003KT 22/M02 A2991 RMK A01 T02171024  RH  020%=      5-min Rain = 0
KEA1 081733Z 13004KT 21/M02 A299 RMK A01 T02141024  RH  020%=      5-min Rain = 0
KEA1 081734Z 13008KT 22/M02 A299 RMK A01 T02161024  RH  020%=      5-min Rain = 0
KEA1 081735Z 13007KT 22/M02 A299 RMK A01 T02181024  RH  020%=      5-min Rain = 0
KEA1 081736Z 12003KT 22/M02 A299 RMK A01 T02191023  RH  020%=      5-min Rain = 0
KEA1 081737Z 13005KT 22/M02 A299 RMK A01 T02181023  RH  020%=      5-min Rain = 0
KEA1 081738Z 10003KT 22/M02 A299 RMK A01 T02161024  RH  020%=      5-min Rain = 0
KEA1 081739Z 12006KT 21/M03 A299 RMK A01 T02141025  RH  020%=      5-min Rain = 0
KEA1 081740Z 13008KT 21/M02 A299 RMK A01 T02141023  RH  020%=      5-min Rain = 0
KEA1 081741Z 13008KT 22/M02 A299 RMK A01 T02181022  RH  020%=      5-min Rain = 0
KEA1 081742Z 13009KT 22/M02 A299 RMK A01 T02201024  RH  019%=      5-min Rain = 0
KEA1 081743Z 14008KT 22/M03 A299 RMK A01 T02201026  RH  019%=      5-min Rain = 0
KEA1 081744Z 17007KT 22/M03 A299 RMK A01 T02221027  RH  019%=      5-min Rain = 0
KEA1 081745Z 20006KT 22/M03 A299 RMK A01 T02201032  RH  018%=      5-min Rain = 0
KEA1 081746Z 23007KT 22/M04 A299 RMK A01 T02191035  RH  018%=      5-min Rain = 0
KEA1 081747Z 21007KT 22/M04 A299 RMK A01 T02191035  RH  018%=      5-min Rain = 0
KEA1 081748Z 22008KT 22/M03 A299 RMK A01 T02221034  RH  018%=      5-min Rain = 0
KEA1 081749Z 21006KT 22/M04 A299 RMK A01 T02221037  RH  017%=      5-min Rain = 0
KEA1 081750Z 21004KT 22/M04 A299 RMK A01 T02211038  RH  017%=      5-min Rain = 0
KEA1 081751Z 22003KT 22/M04 A299 RMK A01 T02201040  RH  017%=      5-min Rain = 0
KEA1 081752Z 19007KT 22/M05 A299 RMK A01 T02201046  RH  016%=      5-min Rain = 0
KEA1 081753Z 20007KT 22/M05 A299 RMK A01 T02191050  RH  016%=      5-min Rain = 0
KEA1 081754Z 21008KT 22/M05 A2989 RMK A01 T02201050  RH  016%=      5-min Rain = 0
KEA1 081755Z 21008KT 22/M05 A2989 RMK A01 T02211052  RH  016%=      5-min Rain = 0
KEA1 081756Z 23005KT 22/M06 A299 RMK A01 T02201055  RH  015%=      5-min Rain = 0
KEA1 081757Z 25004KT 22/M06 A299 RMK A01 T02201058  RH  015%=      5-min Rain = 0
KEA1 081758Z 23006KT 22/M05 A2989 RMK A01 T02201051  RH  016%=      5-min Rain = 0
KEA1 081759Z 23004KT 22/M05 A299 RMK A01 T02221046  RH  016%=      5-min Rain = 0
KEA1 081800Z 24004KT 22/M04 A2989 RMK A01 T02241044  RH  016%=      5-min Rain = 0
KEA1 081801Z 25004KT 23/M04 A2989 RMK A01 T02271037  RH  017%=      5-min Rain = 0
KEA1 081802Z 22003KT 23/M04 A2989 RMK A01 T02311038  RH  016%=      5-min Rain = 0
KEA1 081803Z 15003KT 23/M04 A2989 RMK A01 T02321037  RH  016%=      5-min Rain = 0
KEA1 081804Z 12002KT 23/M03 A2989 RMK A01 T02331034  RH  017%=      5-min Rain = 0
KEA1 081805Z 16004KT 23/M03 A2989 RMK A01 T02331032  RH  017%=      5-min Rain = 0
KEA1 081806Z 14004KT 24/M03 A2989 RMK A01 T02361030  RH  017%=      5-min Rain = 0
KEA1 081807Z 21005KT 24/M03 A2989 RMK A01 T02381034  RH  016%=      5-min Rain = 0
KEA1 081808Z 21004KT 24/M04 A2989 RMK A01 T02361037  RH  016%=      5-min Rain = 0
KEA1 081809Z 19005KT 24/M04 A2989 RMK A01 T02351037  RH  016%=      5-min Rain = 0
KEA1 081810Z 18000KT 23/M04 A2989 RMK A01 T02331039  RH  016%=      5-min Rain = 0
KEA1 081811Z 18001KT 23/M04 A2989 RMK A01 T02321038  RH  016%=      5-min Rain = 0
KEA1 081812Z 19008KT 23/M04 A2989 RMK A01 T02331041  RH  016%=      5-min Rain = 0
KEA1 081813Z 20010KT 24/M05 A2989 RMK A01 T02351045  RH  015%=      5-min Rain = 0
KEA1 081814Z 20010KT 24/M05 A2989 RMK A01 T02361047  RH  015%=      5-min Rain = 0
KEA1 081815Z 21007KT 23/M05 A2989 RMK A01 T02311050  RH  015%=      5-min Rain = 0
KEA1 081816Z 22008KT 23/M05 A2989 RMK A01 T02311045  RH  016%=      5-min Rain = 0
KEA1 081817Z 20007KT 23/M04 A2989 RMK A01 T02331043  RH  016%=      5-min Rain = 0
KEA1 081818Z 22007KT 23/M04 A2989 RMK A01 T02321042  RH  016%=      5-min Rain = 0
KEA1 081819Z 22004KT 23/M04 A2989 RMK A01 T02311043  RH  016%=      5-min Rain = 0
KEA1 081820Z 26003KT 23/M04 A2988 RMK A01 T02301043  RH  016%=      5-min Rain = 0
KEA1 081821Z 28002KT 23/M04 A2988 RMK A01 T02291044  RH  016%=      5-min Rain = 0
KEA1 081822Z 23002KT 23/M04 A2988 RMK A01 T02281044  RH  016%=      5-min Rain = 0
KEA1 081823Z 22005KT 23/M05 A2988 RMK A01 T02281047  RH  016%=      5-min Rain = 0
KEA1 081824Z 22006KT 23/M05 A2988 RMK A01 T02311046  RH  015%=      5-min Rain = 0
KEA1 081825Z 20006KT 23/M05 A2988 RMK A01 T02321046  RH  015%=      5-min Rain = 0
KEA1 081826Z 19005KT 23/M05 A2988 RMK A01 T02311046  RH  015%=      5-min Rain = 0
KEA1 081827Z 25006KT 23/M05 A2988 RMK A01 T02291046  RH  016%=      5-min Rain = 0
KEA1 081828Z 24004KT 23/M04 A2988 RMK A01 T02291044  RH  016%=      5-min Rain = 0
KEA1 081829Z 18003KT 23/M04 A2988 RMK A01 T02331042  RH  016%=      5-min Rain = 0
KEA1 081830Z 17004KT 24/M04 A2988 RMK A01 T02381041  RH  015%=      5-min Rain = 0
KEA1 081831Z 16002KT 24/M04 A2988 RMK A01 T02411040  RH  015%=      5-min Rain = 0
KEA1 081832Z 19004G9KT 25/M04 A2988 RMK A01 T02471039  RH  015%=      5-min Rain = 0
KEA1 081833Z 17006KT 25/M05 A2987 RMK A01 T02451045  RH  014%=      5-min Rain = 0
KEA1 081834Z 17004KT 24/M05 A2987 RMK A01 T02421046  RH  014%=      5-min Rain = 0
KEA1 081835Z 18007G12KT 24/M05 A2987 RMK A01 T02411047  RH  014%=      5-min Rain = 0
KEA1 081836Z 21013KT 24/M05 A2987 RMK A01 T02421046  RH  014%=      5-min Rain = 0
KEA1 081837Z 21011KT 24/M05 A2987 RMK A01 T02411048  RH  014%=      5-min Rain = 0
KEA1 081838Z 21008KT 24/M05 A2987 RMK A01 T02401049  RH  014%=      5-min Rain = 0
KEA1 081839Z 21005KT 24/M05 A2987 RMK A01 T02361051  RH  014%=      5-min Rain = 0
KEA1 081840Z 22007KT 24/M05 A2987 RMK A01 T02371048  RH  015%=      5-min Rain = 0
KEA1 081841Z 19009KT 24/M05 A2987 RMK A01 T02411045  RH  015%=      5-min Rain = 0
KEA1 081842Z 19005KT 25/M05 A2987 RMK A01 T02461047  RH  014%=      5-min Rain = 0
KEA1 081843Z 19007KT 25/M05 A2987 RMK A01 T02481046  RH  014%=      5-min Rain = 0
KEA1 081844Z 20010KT 25/M05 A2986 RMK A01 T02451051  RH  014%=      5-min Rain = 0
KEA1 081845Z 24007KT 24/M05 A2987 RMK A01 T02431051  RH  014%=      5-min Rain = 0
KEA1 081846Z 24010KT 24/M05 A2987 RMK A01 T02431053  RH  014%=      5-min Rain = 0
KEA1 081847Z 24008KT 24/M05 A2987 RMK A01 T02441054  RH  013%=      5-min Rain = 0
KEA1 081848Z 23009KT 24/M05 A2986 RMK A01 T02411054  RH  014%=      5-min Rain = 0
KEA1 081849Z 25009KT 25/M05 A2986 RMK A01 T02461051  RH  014%=      5-min Rain = 0
KEA1 081850Z 26008KT 25/M05 A2986 RMK A01 T02491054  RH  013%=      5-min Rain = 0
KEA1 081851Z 25006KT 25/M06 A2986 RMK A01 T02451058  RH  013%=      5-min Rain = 0
KEA1 081852Z 27008KT 24/M06 A2986 RMK A01 T02441056  RH  013%=      5-min Rain = 0
KEA1 081853Z 24006KT 25/M06 A2986 RMK A01 T02451056  RH  013%=      5-min Rain = 0
KEA1 081854Z 21011KT 25/M06 A2986 RMK A01 T02451057  RH  013%=      5-min Rain = 0
KEA1 081855Z 21014KT 25/M06 A2986 RMK A01 T02451057  RH  013%=      5-min Rain = 0
KEA1 081856Z 21012KT 25/M06 A2986 RMK A01 T02471057  RH  013%=      5-min Rain = 0
KEA1 081857Z 22012KT 25/M06 A2986 RMK A01 T02461055  RH  013%=      5-min Rain = 0
KEA1 081858Z 21008KT 25/M06 A2986 RMK A01 T02461055  RH  013%=      5-min Rain = 0
KEA1 081859Z 24006KT 24/M06 A2986 RMK A01 T02431056  RH  013%=      5-min Rain = 0
KEA1 081900Z 23010KT 24/M06 A2986 RMK A01 T02441056  RH  013%=      5-min Rain = 0
KEA1 081901Z 22009KT 25/M06 A2985 RMK A01 T02451059  RH  013%=      5-min Rain = 0
KEA1 081902Z 19006KT 25/M06 A2985 RMK A01 T02471061  RH  013%=      5-min Rain = 0
KEA1 081903Z 19007KT 25/M06 A2985 RMK A01 T02481058  RH  013%=      5-min Rain = 0
KEA1 081904Z 21012KT 25/M06 A2985 RMK A01 T02501056  RH  013%=      5-min Rain = 0
KEA1 081905Z 24005KT 25/M06 A2985 RMK A01 T02491057  RH  013%=      5-min Rain = 0
KEA1 081906Z 23006KT 25/M06 A2985 RMK A01 T02471059  RH  013%=      5-min Rain = 0
KEA1 081907Z 23008KT 25/M06 A2985 RMK A01 T02451059  RH  013%=      5-min Rain = 0
KEA1 081908Z 21006KT 25/M06 A2985 RMK A01 T02451060  RH  013%=      5-min Rain = 0
KEA1 081909Z 26006KT 25/M06 A2985 RMK A01 T02481058  RH  013%=      5-min Rain = 0
KEA1 081910Z 22006G11KT 25/M06 A2985 RMK A01 T02471057  RH  013%=      5-min Rain = 0
KEA1 081911Z 20011KT 25/M06 A2984 RMK A01 T02471057  RH  013%=      5-min Rain = 0
KEA1 081912Z 21010KT 25/M06 A2985 RMK A01 T02471056  RH  013%=      5-min Rain = 0
KEA1 081913Z 25006KT 25/M06 A2985 RMK A01 T02471055  RH  013%=      5-min Rain = 0
KEA1 081914Z 23006G12KT 25/M06 A2985 RMK A01 T02461056  RH  013%=      5-min Rain = 0
KEA1 081915Z 24010KT 25/M06 A2984 RMK A01 T02461057  RH  013%=      5-min Rain = 0
KEA1 081916Z 22011KT 25/M06 A2984 RMK A01 T02481058  RH  013%=      5-min Rain = 0
KEA1 081917Z 23009KT 25/M06 A2984 RMK A01 T02481058  RH  013%=      5-min Rain = 0
KEA1 081918Z 22007KT 25/M06 A2984 RMK A01 T02501057  RH  013%=      5-min Rain = 0
KEA1 081919Z 22013KT 26/M06 A2984 RMK A01 T02551057  RH  012%=      5-min Rain = 0
KEA1 081920Z 24011KT 25/M06 A2984 RMK A01 T02531064  RH  012%=      5-min Rain = 0
KEA1 081921Z 22011KT 25/M07 A2984 RMK A01 T02491067  RH  012%=      5-min Rain = 0
KEA1 081922Z 23012KT 25/M07 A2984 RMK A01 T02491069  RH  012%=      5-min Rain = 0
KEA1 081923Z 23010KT 25/M07 A2984 RMK A01 T02521069  RH  011%=      5-min Rain = 0
KEA1 081924Z 23008KT 25/M07 A2984 RMK A01 T02521067  RH  012%=      5-min Rain = 0
KEA1 081925Z 21007KT 25/M07 A2984 RMK A01 T02531066  RH  012%=      5-min Rain = 0
KEA1 081926Z 19004KT 25/M07 A2984 RMK A01 T02501069  RH  012%=      5-min Rain = 0
KEA1 081927Z 15003KT 25/M07 A2984 RMK A01 T02491068  RH  012%=      5-min Rain = 0
KEA1 081928Z 18002KT 25/M07 A2984 RMK A01 T02501069  RH  012%=      5-min Rain = 0
KEA1 081929Z 21002KT 25/M07 A2984 RMK A01 T02531068  RH  011%=      5-min Rain = 0
KEA1 081930Z 25006KT 25/M07 A2984 RMK A01 T02541067  RH  011%=      5-min Rain = 0
KEA1 081931Z 26004KT 25/M07 A2984 RMK A01 T02541065  RH  012%=      5-min Rain = 0
KEA1 081932Z 20008KT 25/M07 A2984 RMK A01 T02531067  RH  011%=      5-min Rain = 0
KEA1 081933Z 21010KT 26/M07 A2983 RMK A01 T02551069  RH  011%=      5-min Rain = 0
KEA1 081934Z 23010KT 26/M07 A2984 RMK A01 T02571065  RH  011%=      5-min Rain = 0
KEA1 081935Z 23009KT 25/M07 A2984 RMK A01 T02531067  RH  011%=      5-min Rain = 0
KEA1 081936Z 23007KT 25/M07 A2984 RMK A01 T02491069  RH  012%=      5-min Rain = 0
KEA1 081937Z 22004KT 25/M07 A2983 RMK A01 T02491067  RH  012%=      5-min Rain = 0
KEA1 081938Z 18004KT 25/M07 A2983 RMK A01 T02501069  RH  012%=      5-min Rain = 0
KEA1 081939Z 16003KT 25/M07 A2983 RMK A01 T02481070  RH  012%=      5-min Rain = 0
KEA1 081940Z 17006KT 25/M07 A2983 RMK A01 T02501068  RH  012%=      5-min Rain = 0
KEA1 081941Z 18008KT 26/M07 A2983 RMK A01 T02551066  RH  011%=      5-min Rain = 0
KEA1 081942Z 21005KT 25/M07 A2983 RMK A01 T02541068  RH  011%=      5-min Rain = 0
KEA1 081943Z 22006KT 25/M07 A2983 RMK A01 T02541067  RH  011%=      5-min Rain = 0
KEA1 081944Z 25004KT 25/M07 A2983 RMK A01 T02541070  RH  011%=      5-min Rain = 0
KEA1 081945Z 28004KT 25/M07 A2983 RMK A01 T02501072  RH  011%=      5-min Rain = 0
KEA1 081946Z 21007G14KT 25/M07 A2983 RMK A01 T02481071  RH  011%=      5-min Rain = 0
KEA1 081947Z 20012KT 25/M07 A2982 RMK A01 T02541067  RH  011%=      5-min Rain = 0
KEA1 081948Z 21010KT 26/M07 A2983 RMK A01 T02641066  RH  011%=      5-min Rain = 0
KEA1 081949Z 20011KT 26/M07 A2982 RMK A01 T02631068  RH  011%=      5-min Rain = 0
KEA1 081950Z 19009KT 26/M07 A2982 RMK A01 T02631068  RH  011%=      5-min Rain = 0
KEA1 081951Z 19009KT 26/M07 A2982 RMK A01 T02631068  RH  011%=      5-min Rain = 0
KEA1 081952Z 18012KT 26/M07 A2982 RMK A01 T02641068  RH  011%=      5-min Rain = 0
KEA1 081953Z 18012KT 26/M07 A2982 RMK A01 T02621072  RH  011%=      5-min Rain = 0
KEA1 081954Z 16007KT 26/M07 A2982 RMK A01 T02591072  RH  011%=      5-min Rain = 0
KEA1 081955Z 18005KT 26/M07 A2982 RMK A01 T02561073  RH  011%=      5-min Rain = 0
KEA1 081956Z 21006KT 25/M07 A2982 RMK A01 T02541072  RH  011%=      5-min Rain = 0
KEA1 081957Z 22006KT 26/M07 A2982 RMK A01 T02551073  RH  011%=      5-min Rain = 0
KEA1 081958Z 20003KT 25/M08 A2982 RMK A01 T02541075  RH  011%=      5-min Rain = 0
KEA1 081959Z 23004KT 26/M07 A2982 RMK A01 T02561071  RH  011%=      5-min Rain = 0
KEA1 082000Z 23005KT 26/M07 A2982 RMK A01 T02601071  RH  011%=      5-min Rain = 0
KEA1 082001Z 19008KT 26/M07 A2981 RMK A01 T02611073  RH  010%=      5-min Rain = 0
KEA1 082002Z 21005KT 26/M08 A2982 RMK A01 T02571076  RH  010%=      5-min Rain = 0
KEA1 082003Z 20003KT 26/M08 A2982 RMK A01 T02561075  RH  011%=      5-min Rain = 0
KEA1 082004Z 16006KT 26/M07 A2981 RMK A01 T02601072  RH  011%=      5-min Rain = 0
KEA1 082005Z 16009KT 26/M07 A2981 RMK A01 T02631072  RH  010%=      5-min Rain = 0
KEA1 082006Z 19009KT 26/M07 A2981 RMK A01 T02631073  RH  010%=      5-min Rain = 0
KEA1 082007Z 22010G15KT 26/M07 A2981 RMK A01 T02611074  RH  010%=      5-min Rain = 0
KEA1 082008Z 22012KT 26/M08 A2981 RMK A01 T02621076  RH  010%=      5-min Rain = 0
KEA1 082009Z 22007KT 26/M08 A2981 RMK A01 T02631080  RH  010%=      5-min Rain = 0
KEA1 082010Z 23007KT 26/M08 A2981 RMK A01 T02631079  RH  010%=      5-min Rain = 0
KEA1 082011Z 26006KT 27/M08 A2981 RMK A01 T02671078  RH  010%=      5-min Rain = 0
KEA1 082012Z 20011KT 27/M08 A2981 RMK A01 T02701078  RH  010%=      5-min Rain = 0
KEA1 082013Z 21012KT 27/M08 A2981 RMK A01 T02701082  RH  009%=      5-min Rain = 0
KEA1 082014Z 22008KT 26/M09 A2981 RMK A01 T02631088  RH  009%=      5-min Rain = 0
KEA1 082015Z 21009KT 26/M09 A2981 RMK A01 T02601087  RH  009%=      5-min Rain = 0
KEA1 082016Z 21007KT 26/M09 A2981 RMK A01 T02611087  RH  009%=      5-min Rain = 0
KEA1 082017Z 23005KT 26/M09 A2981 RMK A01 T02581090  RH  009%=      5-min Rain = 0
KEA1 082018Z 24004KT 26/M09 A2981 RMK A01 T02551089  RH  010%=      5-min Rain = 0
KEA1 082019Z 21003KT 26/M09 A298 RMK A01 T02551087  RH  010%=      5-min Rain = 0
KEA1 082020Z 21006KT 26/M09 A298 RMK A01 T02561086  RH  010%=      5-min Rain = 0
KEA1 082021Z 22006KT 26/M09 A298 RMK A01 T02561087  RH  010%=      5-min Rain = 0
KEA1 082022Z 22005KT 26/M09 A298 RMK A01 T02561088  RH  010%=      5-min Rain = 0
KEA1 082023Z 20009G16KT 26/M09 A298 RMK A01 T02561085  RH  010%=      5-min Rain = 0
KEA1 082024Z 19014KT 26/M08 A298 RMK A01 T02611083  RH  010%=      5-min Rain = 0
KEA1 082025Z 20015KT 27/M08 A298 RMK A01 T02651083  RH  009%=      5-min Rain = 0
KEA1 082026Z 19012KT 26/M09 A298 RMK A01 T02631085  RH  009%=      5-min Rain = 0
KEA1 082027Z 19009KT 26/M08 A298 RMK A01 T02621084  RH  010%=      5-min Rain = 0
KEA1 082028Z 19010KT 26/M08 A298 RMK A01 T02621084  RH  010%=      5-min Rain = 0
KEA1 082029Z 19012KT 26/M09 A2979 RMK A01 T02621085  RH  010%=      5-min Rain = 0
KEA1 082030Z 19013KT 26/M09 A2979 RMK A01 T02611086  RH  009%=      5-min Rain = 0
KEA1 082031Z 20013KT 26/M09 A2979 RMK A01 T02621086  RH  009%=      5-min Rain = 0
KEA1 082032Z 19015KT 26/M09 A2979 RMK A01 T02631086  RH  009%=      5-min Rain = 0
KEA1 082033Z 20010KT 27/M09 A2979 RMK A01 T02651085  RH  009%=      5-min Rain = 0
KEA1 082034Z 17007KT 26/M09 A2979 RMK A01 T02641085  RH  009%=      5-min Rain = 0
KEA1 082035Z 18010KT 26/M08 A2979 RMK A01 T02641084  RH  009%=      5-min Rain = 0
KEA1 082036Z 17009KT 27/M08 A2979 RMK A01 T02661083  RH  009%=      5-min Rain = 0
KEA1 082037Z 19015KT 27/M09 A2979 RMK A01 T02681085  RH  009%=      5-min Rain = 0
KEA1 082038Z 20016KT 27/M09 A2978 RMK A01 T02711091  RH  009%=      5-min Rain = 0
KEA1 082039Z 23010KT 27/M10 A2979 RMK A01 T02701095  RH  008%=      5-min Rain = 0
KEA1 082040Z 23007KT 27/M10 A2979 RMK A01 T02681095  RH  008%=      5-min Rain = 0
KEA1 082041Z 25007KT 27/M10 A2979 RMK A01 T02691095  RH  008%=      5-min Rain = 0
KEA1 082042Z 28002KT 27/M09 A2979 RMK A01 T02671094  RH  009%=      5-min Rain = 0
KEA1 082043Z 22006KT 27/M09 A2979 RMK A01 T02681093  RH  009%=      5-min Rain = 0
KEA1 082044Z 22009KT 27/M10 A2979 RMK A01 T02701098  RH  008%=      5-min Rain = 0
KEA1 082045Z 21006KT 27/M10 A2979 RMK A01 T02721100  RH  008%=      5-min Rain = 0
KEA1 082046Z 22010KT 27/M10 A2979 RMK A01 T02741101  RH  008%=      5-min Rain = 0
KEA1 082047Z 24012KT 27/M10 A2979 RMK A01 T02741102  RH  008%=      5-min Rain = 0
KEA1 082048Z 24008KT 27/M11 A2979 RMK A01 T02671108  RH  008%=      5-min Rain = 0
KEA1 082049Z 24006KT 26/M11 A2979 RMK A01 T02641107  RH  008%=      5-min Rain = 0
KEA1 082050Z 25008KT 26/M11 A2979 RMK A01 T02641106  RH  008%=      5-min Rain = 0
KEA1 082051Z 24010KT 27/M10 A2978 RMK A01 T02651104  RH  008%=      5-min Rain = 0
KEA1 082052Z 25010KT 27/M10 A2978 RMK A01 T02671103  RH  008%=      5-min Rain = 0
KEA1 082053Z 25008KT 27/M10 A2978 RMK A01 T02651104  RH  008%=      5-min Rain = 0
KEA1 082054Z 26007KT 26/M10 A2978 RMK A01 T02641104  RH  008%=      5-min Rain = 0
KEA1 082055Z 29005KT 27/M10 A2978 RMK A01 T02661102  RH  008%=      5-min Rain = 0
KEA1 082056Z 26008KT 27/M10 A2978 RMK A01 T02681100  RH  008%=      5-min Rain = 0
KEA1 082057Z 29010KT 27/M10 A2978 RMK A01 T02701098  RH  008%=      5-min Rain = 0
KEA1 082058Z 29010KT 27/M10 A2978 RMK A01 T02731100  RH  008%=      5-min Rain = 0
KEA1 082059Z 28010KT 27/M10 A2978 RMK A01 T02731103  RH  008%=      5-min Rain = 0
KEA1 082100Z 27011KT 27/M10 A2978 RMK A01 T02731101  RH  008%=      5-min Rain = 0
KEA1 082101Z 28013KT 27/M10 A2978 RMK A01 T02741101  RH  008%=      5-min Rain = 0
KEA1 082102Z 25011KT 27/M10 A2978 RMK A01 T02741099  RH  008%=      5-min Rain = 0
KEA1 082103Z 24008KT 28/M10 A2978 RMK A01 T02781098  RH  008%=      5-min Rain = 0
KEA1 082104Z 24010KT 28/M10 A2978 RMK A01 T02751101  RH  008%=      5-min Rain = 0
KEA1 082105Z 24011KT 27/M10 A2978 RMK A01 T02721102  RH  008%=      5-min Rain = 0
KEA1 082106Z 25014KT 27/M10 A2978 RMK A01 T02701103  RH  008%=      5-min Rain = 0
KEA1 082107Z 24012G17KT 27/M10 A2978 RMK A01 T02711101  RH  008%=      5-min Rain = 0
KEA1 082108Z 26010G16KT 27/M10 A2978 RMK A01 T02721101  RH  008%=      5-min Rain = 0
KEA1 082109Z 24013KT 27/M10 A2978 RMK A01 T02701103  RH  008%=      5-min Rain = 0
KEA1 082110Z 23015KT 27/M10 A2978 RMK A01 T02691104  RH  008%=      5-min Rain = 0
KEA1 082111Z 21013KT 27/M10 A2977 RMK A01 T02671104  RH  008%=      5-min Rain = 0
KEA1 082112Z 20011KT 27/M10 A2977 RMK A01 T02671102  RH  008%=      5-min Rain = 0
KEA1 082113Z 22012KT 27/M10 A2977 RMK A01 T02701100  RH  008%=      5-min Rain = 0
KEA1 082114Z 25009KT 27/M10 A2978 RMK A01 T02711099  RH  008%=      5-min Rain = 0
KEA1 082115Z 29006KT 27/M10 A2978 RMK A01 T02721095  RH  008%=      5-min Rain = 0
KEA1 082116Z 30006KT 27/M10 A2978 RMK A01 T02741095  RH  008%=      5-min Rain = 0
KEA1 082117Z 26006KT 28/M10 A2978 RMK A01 T02771096  RH  008%=      5-min Rain = 0
KEA1 082118Z 26011KT 27/M10 A2977 RMK A01 T02741099  RH  008%=      5-min Rain = 0
KEA1 082119Z 26008KT 27/M10 A2977 RMK A01 T02721102  RH  008%=      5-min Rain = 0
KEA1 082120Z 27006KT 27/M10 A2977 RMK A01 T02681104  RH  008%=      5-min Rain = 0
KEA1 082121Z 25006KT 27/M10 A2977 RMK A01 T02671102  RH  008%=      5-min Rain = 0
KEA1 082122Z 24003KT 27/M10 A2977 RMK A01 T02671102  RH  008%=      5-min Rain = 0
KEA1 082123Z 23005KT 27/M10 A2977 RMK A01 T02671101  RH  008%=      5-min Rain = 0
KEA1 082124Z 21006KT 27/M10 A2977 RMK A01 T02651103  RH  008%=      5-min Rain = 0
KEA1 082125Z 21009G14KT 27/M10 A2977 RMK A01 T02651101  RH  008%=      5-min Rain = 0
KEA1 082126Z 21010KT 27/M10 A2977 RMK A01 T02681102  RH  008%=      5-min Rain = 0
KEA1 082127Z 23013KT 27/M10 A2977 RMK A01 T02701103  RH  008%=      5-min Rain = 0
KEA1 082128Z 23012KT 27/M10 A2977 RMK A01 T02711103  RH  008%=      5-min Rain = 0
KEA1 082129Z 24015G20KT 27/M10 A2977 RMK A01 T02731102  RH  008%=      5-min Rain = 0
KEA1 082130Z 25019KT 27/M10 A2977 RMK A01 T02741099  RH  008%=      5-min Rain = 0
KEA1 082131Z 26012KT 28/M10 A2977 RMK A01 T02751100  RH  008%=      5-min Rain = 0
KEA1 082132Z 26012KT 27/M10 A2977 RMK A01 T02741099  RH  008%=      5-min Rain = 0
KEA1 082133Z 25011KT 28/M10 A2977 RMK A01 T02771098  RH  008%=      5-min Rain = 0
KEA1 082134Z 26011KT 28/M10 A2977 RMK A01 T02771100  RH  008%=      5-min Rain = 0
KEA1 082135Z 23010KT 28/M10 A2976 RMK A01 T02791098  RH  008%=      5-min Rain = 0
KEA1 082136Z 27015KT 28/M10 A2977 RMK A01 T02821095  RH  008%=      5-min Rain = 0
KEA1 082137Z 27015G20KT 28/M09 A2976 RMK A01 T02811094  RH  008%=      5-min Rain = 0
KEA1 082138Z 27014KT 28/M10 A2977 RMK A01 T02781099  RH  008%=      5-min Rain = 0
KEA1 082139Z 27013KT 27/M10 A2977 RMK A01 T02721104  RH  008%=      5-min Rain = 0
KEA1 082140Z 28011KT 27/M10 A2976 RMK A01 T02681104  RH  008%=      5-min Rain = 0
KEA1 082141Z 28012KT 27/M10 A2976 RMK A01 T02671103  RH  008%=      5-min Rain = 0
KEA1 082142Z 27013KT 27/M10 A2976 RMK A01 T02661102  RH  008%=      5-min Rain = 0
KEA1 082143Z 27013KT 27/M10 A2976 RMK A01 T02661103  RH  008%=      5-min Rain = 0
KEA1 082144Z 26010KT 27/M10 A2976 RMK A01 T02651103  RH  008%=      5-min Rain = 0
KEA1 082145Z 27011KT 27/M10 A2976 RMK A01 T02651102  RH  008%=      5-min Rain = 0
KEA1 082146Z 27012KT 27/M10 A2976 RMK A01 T02661100  RH  008%=      5-min Rain = 0
KEA1 082147Z 27011KT 27/M10 A2976 RMK A01 T02681099  RH  008%=      5-min Rain = 0
KEA1 082148Z 25009KT 27/M10 A2976 RMK A01 T02701100  RH  008%=      5-min Rain = 0
KEA1 082149Z 24011KT 27/M10 A2976 RMK A01 T02711099  RH  008%=      5-min Rain = 0
KEA1 082150Z 25015KT 27/M10 A2976 RMK A01 T02711100  RH  008%=      5-min Rain = 0
KEA1 082151Z 25015KT 27/M10 A2976 RMK A01 T02691102  RH  008%=      5-min Rain = 0
KEA1 082152Z 26013KT 27/M10 A2976 RMK A01 T02671101  RH  008%=      5-min Rain = 0
KEA1 082153Z 27012KT 27/M10 A2976 RMK A01 T02671100  RH  008%=      5-min Rain = 0
KEA1 082154Z 28012KT 27/M10 A2976 RMK A01 T02681098  RH  008%=      5-min Rain = 0
KEA1 082155Z 29011G16KT 27/M10 A2976 RMK A01 T02691098  RH  008%=      5-min Rain = 0
KEA1 082156Z 27010KT 27/M10 A2976 RMK A01 T02711099  RH  008%=      5-min Rain = 0
KEA1 082157Z 27008KT 27/M10 A2976 RMK A01 T02721099  RH  008%=      5-min Rain = 0
KEA1 082158Z 28009KT 28/M10 A2975 RMK A01 T02761097  RH  008%=      5-min Rain = 0
KEA1 082159Z 27007KT 28/M10 A2975 RMK A01 T02761101  RH  008%=      5-min Rain = 0
KEA1 082200Z 29009KT 28/M10 A2975 RMK A01 T02751100  RH  008%=      5-min Rain = 0
KEA1 082201Z 29009KT 28/M10 A2975 RMK A01 T02751099  RH  008%=      5-min Rain = 0
KEA1 082202Z 28010KT 28/M10 A2975 RMK A01 T02761098  RH  008%=      5-min Rain = 0
KEA1 082203Z 28009KT 28/M10 A2975 RMK A01 T02751101  RH  008%=      5-min Rain = 0
KEA1 082204Z 26008KT 28/M10 A2975 RMK A01 T02751100  RH  008%=      5-min Rain = 0
KEA1 082205Z 28008KT 28/M10 A2975 RMK A01 T02751101  RH  008%=      5-min Rain = 0
KEA1 082206Z 28012KT 28/M10 A2975 RMK A01 T02751098  RH  008%=      5-min Rain = 0
KEA1 082207Z 27011KT 28/M09 A2975 RMK A01 T02781094  RH  008%=      5-min Rain = 0
KEA1 082208Z 24013KT 28/M10 A2975 RMK A01 T02781096  RH  008%=      5-min Rain = 0
KEA1 082209Z 25011G18KT 28/M10 A2975 RMK A01 T02751098  RH  008%=      5-min Rain = 0
KEA1 082210Z 26016KT 27/M10 A2975 RMK A01 T02741095  RH  008%=      5-min Rain = 0
KEA1 082211Z 27014KT 28/M09 A2975 RMK A01 T02761093  RH  008%=      5-min Rain = 0
KEA1 082212Z 25012KT 28/M09 A2975 RMK A01 T02791094  RH  008%=      5-min Rain = 0
KEA1 082213Z 25011KT 28/M10 A2975 RMK A01 T02771097  RH  008%=      5-min Rain = 0
KEA1 082214Z 26011KT 27/M10 A2975 RMK A01 T02741098  RH  008%=      5-min Rain = 0
KEA1 082215Z 27007KT 27/M10 A2975 RMK A01 T02741098  RH  008%=      5-min Rain = 0
KEA1 082216Z 26011KT 27/M10 A2974 RMK A01 T02741097  RH  008%=      5-min Rain = 0
KEA1 082217Z 26013KT 28/M10 A2974 RMK A01 T02761095  RH  008%=      5-min Rain = 0
KEA1 082218Z 28012KT 28/M09 A2974 RMK A01 T02761094  RH  008%=      5-min Rain = 0
KEA1 082219Z 28011KT 28/M09 A2974 RMK A01 T02761093  RH  008%=      5-min Rain = 0
KEA1 082220Z 26010KT 28/M09 A2974 RMK A01 T02791091  RH  008%=      5-min Rain = 0
KEA1 082221Z 26009KT 28/M09 A2974 RMK A01 T02801094  RH  008%=      5-min Rain = 0
KEA1 082222Z 26007KT 28/M10 A2974 RMK A01 T02791096  RH  008%=      5-min Rain = 0
KEA1 082223Z 24007KT 28/M10 A2974 RMK A01 T02781096  RH  008%=      5-min Rain = 0
KEA1 082224Z 25008KT 28/M10 A2974 RMK A01 T02771095  RH  008%=      5-min Rain = 0
KEA1 082225Z 24006KT 28/M10 A2974 RMK A01 T02751096  RH  008%=      5-min Rain = 0
KEA1 082226Z 22005KT 27/M10 A2974 RMK A01 T02731095  RH  008%=      5-min Rain = 0
KEA1 082227Z 21008KT 28/M10 A2974 RMK A01 T02761096  RH  008%=      5-min Rain = 0
KEA1 082228Z 22007KT 28/M10 A2974 RMK A01 T02781096  RH  008%=      5-min Rain = 0
KEA1 082229Z 24009KT 28/M10 A2974 RMK A01 T02801095  RH  008%=      5-min Rain = 0
KEA1 082230Z 24008KT 28/M09 A2974 RMK A01 T02791094  RH  008%=      5-min Rain = 0
KEA1 082231Z 23009KT 28/M09 A2974 RMK A01 T02791092  RH  008%=      5-min Rain = 0
KEA1 082232Z 23009KT 28/M09 A2974 RMK A01 T02831091  RH  008%=      5-min Rain = 0
KEA1 082233Z 23007KT 28/M09 A2973 RMK A01 T02821094  RH  008%=      5-min Rain = 0
KEA1 082234Z 27008KT 28/M10 A2974 RMK A01 T02801095  RH  008%=      5-min Rain = 0
KEA1 082235Z 27006KT 28/M10 A2973 RMK A01 T02761097  RH  008%=      5-min Rain = 0
KEA1 082236Z 28004KT 27/M10 A2973 RMK A01 T02721099  RH  008%=      5-min Rain = 0
KEA1 082237Z 25003KT 27/M10 A2973 RMK A01 T02691099  RH  008%=      5-min Rain = 0
KEA1 082238Z 24007KT 27/M10 A2973 RMK A01 T02691097  RH  008%=      5-min Rain = 0
KEA1 082239Z 25006KT 27/M09 A2973 RMK A01 T02731092  RH  008%=      5-min Rain = 0
KEA1 082240Z 29006KT 28/M09 A2973 RMK A01 T02781091  RH  008%=      5-min Rain = 0
KEA1 082241Z 31009KT 28/M10 A2973 RMK A01 T02791095  RH  008%=      5-min Rain = 0
KEA1 082242Z 28010KT 28/M09 A2973 RMK A01 T02761094  RH  008%=      5-min Rain = 0
KEA1 082243Z 28007KT 28/M10 A2973 RMK A01 T02761095  RH  008%=      5-min Rain = 0
KEA1 082244Z 28005KT 28/M09 A2973 RMK A01 T02781090  RH  008%=      5-min Rain = 0
KEA1 082245Z 29007KT 28/M09 A2973 RMK A01 T02841087  RH  008%=      5-min Rain = 0
KEA1 082246Z 28008KT 29/M09 A2973 RMK A01 T02861085  RH  008%=      5-min Rain = 0
KEA1 082247Z 28009KT 28/M09 A2973 RMK A01 T02841088  RH  008%=      5-min Rain = 0
KEA1 082248Z 28007KT 28/M09 A2973 RMK A01 T02801093  RH  008%=      5-min Rain = 0
KEA1 082249Z 28005KT 28/M09 A2973 RMK A01 T02801092  RH  008%=      5-min Rain = 0
KEA1 082250Z 26008KT 28/M09 A2973 RMK A01 T02811090  RH  008%=      5-min Rain = 0
KEA1 082251Z 27008KT 28/M09 A2973 RMK A01 T02811092  RH  008%=      5-min Rain = 0
KEA1 082252Z 29009KT 28/M09 A2973 RMK A01 T02791091  RH  008%=      5-min Rain = 0
KEA1 082253Z 27010KT 28/M09 A2973 RMK A01 T02791090  RH  008%=      5-min Rain = 0
KEA1 082254Z 26011KT 28/M09 A2973 RMK A01 T02801090  RH  008%=      5-min Rain = 0
KEA1 082255Z 25010KT 28/M09 A2972 RMK A01 T02801091  RH  008%=      5-min Rain = 0
KEA1 082256Z 25009KT 28/M09 A2972 RMK A01 T02791092  RH  008%=      5-min Rain = 0
KEA1 082257Z 27010KT 28/M09 A2972 RMK A01 T02771092  RH  008%=      5-min Rain = 0
KEA1 082258Z 27007KT 27/M09 A2972 RMK A01 T02731093  RH  008%=      5-min Rain = 0
KEA1 082259Z 26009KT 27/M09 A2972 RMK A01 T02701094  RH  008%=      5-min Rain = 0
KEA1 082300Z 26008KT 27/M09 A2972 RMK A01 T02721091  RH  009%=      5-min Rain = 0
KEA1 082301Z 26008KT 28/M09 A2972 RMK A01 T02761090  RH  008%=      5-min Rain = 0
KEA1 082302Z 26008KT 28/M09 A2972 RMK A01 T02761092  RH  008%=      5-min Rain = 0
KEA1 082303Z 24009KT 28/M09 A2972 RMK A01 T02771090  RH  008%=      5-min Rain = 0
KEA1 082304Z 24008KT 28/M09 A2972 RMK A01 T02751092  RH  008%=      5-min Rain = 0
KEA1 082305Z 25007KT 27/M09 A2972 RMK A01 T02731092  RH  008%=      5-min Rain = 0
KEA1 082306Z 26007KT 27/M09 A2972 RMK A01 T02721091  RH  009%=      5-min Rain = 0
KEA1 082307Z 27008KT 27/M09 A2972 RMK A01 T02741089  RH  009%=      5-min Rain = 0
KEA1 082308Z 26007KT 28/M09 A2972 RMK A01 T02751089  RH  009%=      5-min Rain = 0
KEA1 082309Z 29007KT 27/M09 A2972 RMK A01 T02741088  RH  009%=      5-min Rain = 0
KEA1 082310Z 28006KT 27/M09 A2972 RMK A01 T02741086  RH  009%=      5-min Rain = 0
KEA1 082311Z 28007KT 28/M09 A2972 RMK A01 T02771086  RH  009%=      5-min Rain = 0
KEA1 082312Z 26006KT 28/M09 A2972 RMK A01 T02781088  RH  008%=      5-min Rain = 0
KEA1 082313Z 26006KT 28/M09 A2972 RMK A01 T02791088  RH  008%=      5-min Rain = 0
KEA1 082314Z 28007KT 28/M09 A2972 RMK A01 T02801089  RH  008%=      5-min Rain = 0
KEA1 082315Z 29006KT 28/M09 A2971 RMK A01 T02781091  RH  008%=      5-min Rain = 0
KEA1 082316Z 27006KT 28/M09 A2971 RMK A01 T02761090  RH  008%=      5-min Rain = 0
KEA1 082317Z 24006KT 28/M09 A2971 RMK A01 T02751092  RH  008%=      5-min Rain = 0
KEA1 082318Z 22003KT 27/M09 A2971 RMK A01 T02731094  RH  008%=      5-min Rain = 0
KEA1 082319Z 26004KT 27/M09 A2971 RMK A01 T02721094  RH  008%=      5-min Rain = 0
KEA1 082320Z 26004KT 27/M09 A2971 RMK A01 T02721092  RH  008%=      5-min Rain = 0
KEA1 082321Z 24004KT 27/M09 A2971 RMK A01 T02741090  RH  009%=      5-min Rain = 0
KEA1 082322Z 26004KT 28/M09 A2971 RMK A01 T02751091  RH  008%=      5-min Rain = 0
KEA1 082323Z 27005KT 27/M09 A2971 RMK A01 T02741092  RH  008%=      5-min Rain = 0
KEA1 082324Z 26004KT 27/M09 A2971 RMK A01 T02731092  RH  008%=      5-min Rain = 0
KEA1 082325Z 22003KT 27/M09 A2971 RMK A01 T02741090  RH  008%=      5-min Rain = 0
KEA1 082326Z 24002KT 27/M09 A2971 RMK A01 T02731092  RH  008%=      5-min Rain = 0
KEA1 082327Z 22003KT 27/M09 A2971 RMK A01 T02721092  RH  008%=      5-min Rain = 0
KEA1 082328Z 22003KT 27/M09 A2971 RMK A01 T02711091  RH  009%=      5-min Rain = 0
KEA1 082329Z 24003KT 27/M09 A2971 RMK A01 T02711091  RH  009%=      5-min Rain = 0
KEA1 082330Z 20003KT 27/M09 A2971 RMK A01 T02711092  RH  009%=      5-min Rain = 0
KEA1 082331Z 21004KT 27/M09 A2971 RMK A01 T02721091  RH  009%=      5-min Rain = 0
KEA1 082332Z 22005KT 27/M09 A2971 RMK A01 T02741091  RH  008%=      5-min Rain = 0
KEA1 082333Z 20004KT 28/M09 A2971 RMK A01 T02761091  RH  008%=      5-min Rain = 0
KEA1 082334Z 21004KT 28/M09 A2971 RMK A01 T02781091  RH  008%=      5-min Rain = 0
KEA1 082335Z 23003KT 28/M09 A2971 RMK A01 T02791093  RH  008%=      5-min Rain = 0
KEA1 082336Z 23003KT 28/M09 A2971 RMK A01 T02781093  RH  008%=      5-min Rain = 0
KEA1 082337Z 18004KT 28/M09 A2971 RMK A01 T02801090  RH  008%=      5-min Rain = 0
KEA1 082338Z 16005KT 28/M09 A2971 RMK A01 T02821092  RH  008%=      5-min Rain = 0
KEA1 082339Z 17003KT 28/M09 A2971 RMK A01 T02811092  RH  008%=      5-min Rain = 0
KEA1 082340Z 18003KT 28/M09 A2971 RMK A01 T02791092  RH  008%=      5-min Rain = 0
KEA1 082341Z 18005KT 28/M09 A2971 RMK A01 T02781093  RH  008%=      5-min Rain = 0
KEA1 082342Z 18007KT 28/M09 A2971 RMK A01 T02781092  RH  008%=      5-min Rain = 0
KEA1 082343Z 19004KT 28/M09 A2971 RMK A01 T02771093  RH  008%=      5-min Rain = 0
KEA1 082344Z 20004KT 28/M09 A2971 RMK A01 T02761093  RH  008%=      5-min Rain = 0
KEA1 082345Z 19007KT 28/M09 A2971 RMK A01 T02761093  RH  008%=      5-min Rain = 0
KEA1 082346Z 17005KT 28/M09 A297 RMK A01 T02751093  RH  008%=      5-min Rain = 0
KEA1 082347Z 18005KT 28/M09 A297 RMK A01 T02751093  RH  008%=      5-min Rain = 0
KEA1 082348Z 18005KT 28/M09 A297 RMK A01 T02761093  RH  008%=      5-min Rain = 0
KEA1 082349Z 19004KT 28/M09 A297 RMK A01 T02771093  RH  008%=      5-min Rain = 0
KEA1 082350Z 17007KT 28/M09 A297 RMK A01 T02791092  RH  008%=      5-min Rain = 0
KEA1 082351Z 19009KT 28/M09 A297 RMK A01 T02801091  RH  008%=      5-min Rain = 0
KEA1 082352Z 19010KT 28/M09 A297 RMK A01 T02831091  RH  008%=      5-min Rain = 0
KEA1 082353Z 21007KT 28/M09 A297 RMK A01 T02831092  RH  008%=      5-min Rain = 0
KEA1 082354Z 19007KT 28/M09 A297 RMK A01 T02831092  RH  008%=      5-min Rain = 0
KEA1 082355Z 20008KT 28/M09 A297 RMK A01 T02841092  RH  008%=      5-min Rain = 0
KEA1 082356Z 20006KT 28/M09 A297 RMK A01 T02831092  RH  008%=      5-min Rain = 0
KEA1 082357Z 19007KT 28/M09 A297 RMK A01 T02841092  RH  008%=      5-min Rain = 0
KEA1 082358Z 20008KT 28/M09 A297 RMK A01 T02841092  RH  008%=      5-min Rain = 0
KEA1 082359Z 21008KT 28/M09 A297 RMK A01 T02831093  RH  008%=      5-min Rain = 0
KEA1 090000Z 19009KT 28/M09 A297 RMK A01 T02821093  RH  008%=      5-min Rain = 0
KEA1 090001Z 20009KT 28/M09 A297 RMK A01 T02831091  RH  008%=      5-min Rain = 0
KEA1 090002Z 21012KT 29/M09 A297 RMK A01 T02861090  RH  008%=      5-min Rain = 0
KEA1 090003Z 23012KT 29/M09 A297 RMK A01 T02871091  RH  008%=      5-min Rain = 0
KEA1 090004Z 21014KT 29/M09 A2969 RMK A01 T02861092  RH  008%=      5-min Rain = 0
KEA1 090005Z 22014KT 29/M09 A2969 RMK A01 T02861092  RH  008%=      5-min Rain = 0
KEA1 090006Z 23012KT 28/M09 A297 RMK A01 T02841093  RH  008%=      5-min Rain = 0
KEA1 090007Z 22009KT 28/M09 A297 RMK A01 T02831092  RH  008%=      5-min Rain = 0
KEA1 090008Z 22012KT 28/M09 A297 RMK A01 T02841091  RH  008%=      5-min Rain = 0
KEA1 090009Z 22012KT 28/M09 A297 RMK A01 T02841091  RH  008%=      5-min Rain = 0
KEA1 090010Z 22012KT 28/M09 A297 RMK A01 T02841092  RH  008%=      5-min Rain = 0
KEA1 090011Z 23012KT 28/M09 A297 RMK A01 T02841092  RH  008%=      5-min Rain = 0
KEA1 090012Z 24012KT 28/M09 A297 RMK A01 T02831092  RH  008%=      5-min Rain = 0
KEA1 090013Z 24011KT 28/M09 A297 RMK A01 T02831091  RH  008%=      5-min Rain = 0
KEA1 090014Z 24011KT 28/M09 A297 RMK A01 T02831090  RH  008%=      5-min Rain = 0
KEA1 090015Z 24014KT 28/M09 A297 RMK A01 T02841090  RH  008%=      5-min Rain = 0
KEA1 090016Z 25015KT 28/M09 A297 RMK A01 T02841088  RH  008%=      5-min Rain = 0
KEA1 090017Z 26017KT 28/M09 A297 RMK A01 T02831089  RH  008%=      5-min Rain = 0
KEA1 090018Z 26014KT 28/M09 A297 RMK A01 T02831089  RH  008%=      5-min Rain = 0
KEA1 090019Z 26016KT 28/M09 A297 RMK A01 T02821088  RH  008%=      5-min Rain = 0
KEA1 090020Z 26016KT 28/M09 A297 RMK A01 T02811087  RH  008%=      5-min Rain = 0
KEA1 090021Z 26019KT 28/M09 A297 RMK A01 T02791088  RH  008%=      5-min Rain = 0
KEA1 090022Z 26017KT 28/M09 A297 RMK A01 T02781091  RH  008%=      5-min Rain = 0
KEA1 090023Z 26018KT 28/M09 A297 RMK A01 T02771089  RH  008%=      5-min Rain = 0
KEA1 090024Z 26019KT 28/M09 A297 RMK A01 T02771091  RH  008%=      5-min Rain = 0
KEA1 090025Z 26016KT 28/M09 A297 RMK A01 T02751089  RH  009%=      5-min Rain = 0
KEA1 090026Z 26017KT 27/M09 A297 RMK A01 T02741089  RH  009%=      5-min Rain = 0
KEA1 090027Z 26016KT 27/M09 A297 RMK A01 T02731086  RH  009%=      5-min Rain = 0
KEA1 090028Z 26016KT 27/M08 A297 RMK A01 T02711083  RH  009%=      5-min Rain = 0
KEA1 090029Z 26013G18KT 27/M08 A297 RMK A01 T02701082  RH  009%=      5-min Rain = 0
KEA1 090030Z 26017G22KT 27/M08 A297 RMK A01 T02691083  RH  009%=      5-min Rain = 0
KEA1 090031Z 26019KT 27/M09 A297 RMK A01 T02691086  RH  009%=      5-min Rain = 0
KEA1 090032Z 26017KT 27/M09 A297 RMK A01 T02681090  RH  009%=      5-min Rain = 0
KEA1 090033Z 26019KT 27/M09 A297 RMK A01 T02681090  RH  009%=      5-min Rain = 0
KEA1 090034Z 26018KT 27/M09 A297 RMK A01 T02681090  RH  009%=      5-min Rain = 0
KEA1 090035Z 26016KT 27/M09 A297 RMK A01 T02681087  RH  009%=      5-min Rain = 0
KEA1 090036Z 26015KT 27/M09 A297 RMK A01 T02661086  RH  009%=      5-min Rain = 0
KEA1 090037Z 26014KT 27/M09 A297 RMK A01 T02651087  RH  009%=      5-min Rain = 0
KEA1 090038Z 26013KT 26/M09 A297 RMK A01 T02641086  RH  009%=      5-min Rain = 0
KEA1 090039Z 26013KT 26/M09 A297 RMK A01 T02631085  RH  009%=      5-min Rain = 0
KEA1 090040Z 26015KT 26/M09 A297 RMK A01 T02621086  RH  009%=      5-min Rain = 0
KEA1 090041Z 26015KT 26/M09 A297 RMK A01 T02631086  RH  009%=      5-min Rain = 0
KEA1 090042Z 26015KT 26/M09 A297 RMK A01 T02621085  RH  009%=      5-min Rain = 0
KEA1 090043Z 26014KT 26/M08 A297 RMK A01 T02621084  RH  010%=      5-min Rain = 0
KEA1 090044Z 26013KT 26/M08 A297 RMK A01 T02611084  RH  010%=      5-min Rain = 0
KEA1 090045Z 26012KT 26/M08 A297 RMK A01 T02611084  RH  010%=      5-min Rain = 0
KEA1 090046Z 26013KT 26/M08 A297 RMK A01 T02601084  RH  010%=      5-min Rain = 0
KEA1 090047Z 26011KT 26/M08 A297 RMK A01 T02591084  RH  010%=      5-min Rain = 0
KEA1 090048Z 26011KT 26/M08 A297 RMK A01 T02591082  RH  010%=      5-min Rain = 0
KEA1 090049Z 26012KT 26/M08 A297 RMK A01 T02571082  RH  010%=      5-min Rain = 0
KEA1 090050Z 26011KT 26/M08 A297 RMK A01 T02561081  RH  010%=      5-min Rain = 0
KEA1 090051Z 26012KT 26/M08 A297 RMK A01 T02561081  RH  010%=      5-min Rain = 0
KEA1 090052Z 26011KT 26/M08 A297 RMK A01 T02561081  RH  010%=      5-min Rain = 0
KEA1 090053Z 26011KT 26/M08 A2969 RMK A01 T02561081  RH  010%=      5-min Rain = 0
KEA1 090054Z 26011KT 26/M08 A2969 RMK A01 T02561080  RH  010%=      5-min Rain = 0
KEA1 090055Z 26011KT 26/M08 A2969 RMK A01 T02551081  RH  010%=      5-min Rain = 0
KEA1 090056Z 26011KT 26/M08 A2969 RMK A01 T02551080  RH  010%=      5-min Rain = 0
KEA1 090057Z 26010KT 25/M08 A2969 RMK A01 T02541079  RH  010%=      5-min Rain = 0
KEA1 090058Z 25010KT 25/M08 A2969 RMK A01 T02531079  RH  010%=      5-min Rain = 0
KEA1 090059Z 25009KT 25/M08 A2969 RMK A01 T02521080  RH  010%=      5-min Rain = 0
KEA1 090100Z 25010KT 25/M08 A297 RMK A01 T02511081  RH  010%=      5-min Rain = 0
KEA1 090101Z 25010KT 25/M08 A2969 RMK A01 T02511081  RH  010%=      5-min Rain = 0
KEA1 090102Z 25009KT 25/M08 A2969 RMK A01 T02511083  RH  010%=      5-min Rain = 0
KEA1 090103Z 25009KT 25/M08 A297 RMK A01 T02511082  RH  010%=      5-min Rain = 0
KEA1 090104Z 25008KT 25/M08 A297 RMK A01 T02491081  RH  011%=      5-min Rain = 0
KEA1 090105Z 25009KT 25/M08 A297 RMK A01 T02471081  RH  011%=      5-min Rain = 0
KEA1 090106Z 25009KT 25/M08 A297 RMK A01 T02461079  RH  011%=      5-min Rain = 0
KEA1 090107Z 25008KT 25/M08 A297 RMK A01 T02451078  RH  011%=      5-min Rain = 0
KEA1 090108Z 25009KT 24/M08 A297 RMK A01 T02441076  RH  011%=      5-min Rain = 0
KEA1 090109Z 25010KT 24/M08 A297 RMK A01 T02441077  RH  011%=      5-min Rain = 0
KEA1 090110Z 25011KT 25/M08 A297 RMK A01 T02451079  RH  011%=      5-min Rain = 0
KEA1 090111Z 25010KT 25/M08 A297 RMK A01 T02461079  RH  011%=      5-min Rain = 0
KEA1 090112Z 25009KT 25/M08 A297 RMK A01 T02461079  RH  011%=      5-min Rain = 0
KEA1 090113Z 25008KT 25/M08 A297 RMK A01 T02451078  RH  011%=      5-min Rain = 0
KEA1 090114Z 25008KT 24/M08 A297 RMK A01 T02431078  RH  011%=      5-min Rain = 0
KEA1 090115Z 25008KT 24/M08 A2969 RMK A01 T02431076  RH  011%=      5-min Rain = 0
KEA1 090116Z 25008KT 24/M08 A2969 RMK A01 T02421075  RH  012%=      5-min Rain = 0
KEA1 090117Z 24008KT 24/M07 A2969 RMK A01 T02401074  RH  012%=      5-min Rain = 0
KEA1 090118Z 25008KT 24/M07 A2969 RMK A01 T02391072  RH  012%=      5-min Rain = 0
KEA1 090119Z 25008KT 24/M07 A2969 RMK A01 T02391072  RH  012%=      5-min Rain = 0
KEA1 090120Z 24008KT 24/M07 A2969 RMK A01 T02381071  RH  012%=      5-min Rain = 0
KEA1 090121Z 25008KT 24/M07 A2969 RMK A01 T02381070  RH  012%=      5-min Rain = 0
KEA1 090122Z 25008KT 24/M07 A2969 RMK A01 T02381070  RH  012%=      5-min Rain = 0
KEA1 090123Z 25008KT 24/M07 A2969 RMK A01 T02381070  RH  012%=      5-min Rain = 0
KEA1 090124Z 25008KT 24/M07 A2969 RMK A01 T02371069  RH  012%=      5-min Rain = 0
KEA1 090125Z 25007KT 24/M07 A2969 RMK A01 T02361069  RH  013%=      5-min Rain = 0
KEA1 090126Z 25007KT 24/M07 A2969 RMK A01 T02351067  RH  013%=      5-min Rain = 0
KEA1 090127Z 25006KT 23/M07 A2969 RMK A01 T02341067  RH  013%=      5-min Rain = 0
KEA1 090128Z 25006KT 23/M07 A2969 RMK A01 T02331066  RH  013%=      5-min Rain = 0
KEA1 090129Z 25006KT 23/M07 A2969 RMK A01 T02311067  RH  013%=      5-min Rain = 0
KEA1 090130Z 25007KT 23/M07 A2969 RMK A01 T02291067  RH  013%=      5-min Rain = 0
KEA1 090131Z 25007KT 23/M07 A2969 RMK A01 T02291066  RH  013%=      5-min Rain = 0
KEA1 090132Z 25007KT 23/M07 A2969 RMK A01 T02281066  RH  013%=      5-min Rain = 0
KEA1 090133Z 25007KT 23/M07 A2969 RMK A01 T02281067  RH  013%=      5-min Rain = 0
KEA1 090134Z 25007KT 23/M07 A2969 RMK A01 T02281067  RH  013%=      5-min Rain = 0
KEA1 090135Z 25007KT 23/M07 A2969 RMK A01 T02281068  RH  013%=      5-min Rain = 0
KEA1 090136Z 25007KT 23/M07 A2969 RMK A01 T02281068  RH  013%=      5-min Rain = 0
KEA1 090137Z 25007KT 23/M07 A2969 RMK A01 T02281069  RH  013%=      5-min Rain = 0
KEA1 090138Z 25007KT 23/M07 A2969 RMK A01 T02281069  RH  013%=      5-min Rain = 0
KEA1 090139Z 25006KT 23/M07 A2969 RMK A01 T02281070  RH  013%=      5-min Rain = 0
KEA1 090140Z 25006KT 23/M07 A2969 RMK A01 T02281071  RH  013%=      5-min Rain = 0
KEA1 090141Z 25006KT 23/M07 A2969 RMK A01 T02281071  RH  013%=      5-min Rain = 0
KEA1 090142Z 25006KT 23/M07 A2969 RMK A01 T02281071  RH  013%=      5-min Rain = 0
KEA1 090143Z 24007KT 23/M07 A2969 RMK A01 T02271071  RH  013%=      5-min Rain = 0
KEA1 090144Z 23007KT 23/M07 A2969 RMK A01 T02271072  RH  013%=      5-min Rain = 0
KEA1 090145Z 23007KT 23/M07 A2969 RMK A01 T02281072  RH  013%=      5-min Rain = 0
KEA1 090146Z 24007KT 23/M08 A2969 RMK A01 T02291076  RH  012%=      5-min Rain = 0
KEA1 090147Z 24007KT 23/M08 A2969 RMK A01 T02301080  RH  012%=      5-min Rain = 0
KEA1 090148Z 23007KT 23/M08 A2969 RMK A01 T02301083  RH  012%=      5-min Rain = 0
KEA1 090149Z 23007KT 23/M08 A2969 RMK A01 T02311084  RH  011%=      5-min Rain = 0
KEA1 090150Z 23007KT 23/M09 A2969 RMK A01 T02321085  RH  011%=      5-min Rain = 0
KEA1 090151Z 23007KT 23/M09 A2969 RMK A01 T02321087  RH  011%=      5-min Rain = 0
KEA1 090152Z 23007KT 23/M09 A2969 RMK A01 T02341087  RH  011%=      5-min Rain = 0
KEA1 090153Z 23007KT 24/M09 A2969 RMK A01 T02351087  RH  011%=      5-min Rain = 0
KEA1 090154Z 23007KT 24/M09 A2969 RMK A01 T02371088  RH  011%=      5-min Rain = 0
KEA1 090155Z 23008KT 24/M09 A2969 RMK A01 T02391088  RH  011%=      5-min Rain = 0
KEA1 090156Z 23007KT 24/M09 A2969 RMK A01 T02401089  RH  010%=      5-min Rain = 0
KEA1 090157Z 24007KT 24/M09 A2969 RMK A01 T02401089  RH  010%=      5-min Rain = 0
KEA1 090158Z 23007KT 24/M09 A2969 RMK A01 T02401090  RH  010%=      5-min Rain = 0
KEA1 090159Z 24007KT 24/M09 A2969 RMK A01 T02401091  RH  010%=      5-min Rain = 0
KEA1 090200Z 23007KT 24/M09 A2969 RMK A01 T02411091  RH  010%=      5-min Rain = 0
KEA1 090201Z 23007KT 24/M09 A2969 RMK A01 T02401091  RH  010%=      5-min Rain = 0
KEA1 090202Z 23007KT 24/M09 A2969 RMK A01 T02411091  RH  010%=      5-min Rain = 0
KEA1 090203Z 23007KT 24/M09 A2969 RMK A01 T02401092  RH  010%=      5-min Rain = 0
KEA1 090204Z 23008KT 24/M09 A2969 RMK A01 T02401092  RH  010%=      5-min Rain = 0
KEA1 090205Z 23007KT 24/M09 A2969 RMK A01 T02411092  RH  010%=      5-min Rain = 0
KEA1 090206Z 23007KT 24/M09 A2969 RMK A01 T02411092  RH  010%=      5-min Rain = 0
KEA1 090207Z 23007KT 24/M09 A2969 RMK A01 T02411092  RH  010%=      5-min Rain = 0
KEA1 090208Z 23007KT 24/M09 A2969 RMK A01 T02411093  RH  010%=      5-min Rain = 0
KEA1 090209Z 23007KT 24/M09 A2969 RMK A01 T02421091  RH  010%=      5-min Rain = 0
KEA1 090210Z 23007KT 24/M09 A2969 RMK A01 T02411092  RH  010%=      5-min Rain = 0
KEA1 090211Z 23007KT 24/M09 A2969 RMK A01 T02411091  RH  010%=      5-min Rain = 0
KEA1 090212Z 23007KT 24/M09 A2969 RMK A01 T02411092  RH  010%=      5-min Rain = 0
KEA1 090213Z 23007KT 24/M09 A2969 RMK A01 T02411092  RH  010%=      5-min Rain = 0
KEA1 090214Z 23007KT 24/M09 A2969 RMK A01 T02411091  RH  010%=      5-min Rain = 0
KEA1 090215Z 23008KT 24/M09 A2969 RMK A01 T02411092  RH  010%=      5-min Rain = 0
KEA1 090216Z 23008KT 24/M09 A2969 RMK A01 T02411091  RH  010%=      5-min Rain = 0
KEA1 090217Z 23008KT 24/M09 A2969 RMK A01 T02421092  RH  010%=      5-min Rain = 0
KEA1 090218Z 22008KT 24/M09 A2969 RMK A01 T02431092  RH  010%=      5-min Rain = 0
KEA1 090219Z 23008KT 24/M09 A2969 RMK A01 T02441091  RH  010%=      5-min Rain = 0
KEA1 090220Z 22008KT 25/M09 A2969 RMK A01 T02451091  RH  010%=      5-min Rain = 0
KEA1 090221Z 22008KT 25/M09 A2969 RMK A01 T02461091  RH  010%=      5-min Rain = 0
KEA1 090222Z 22008KT 25/M09 A2969 RMK A01 T02461091  RH  010%=      5-min Rain = 0
KEA1 090223Z 22008KT 25/M09 A2969 RMK A01 T02471091  RH  010%=      5-min Rain = 0
KEA1 090224Z 23009KT 25/M09 A2969 RMK A01 T02471092  RH  010%=      5-min Rain = 0
KEA1 090225Z 22010KT 25/M09 A2969 RMK A01 T02471092  RH  010%=      5-min Rain = 0
KEA1 090226Z 22009KT 25/M09 A2969 RMK A01 T02471091  RH  010%=      5-min Rain = 0
KEA1 090227Z 22011KT 25/M09 A2969 RMK A01 T02481091  RH  010%=      5-min Rain = 0
KEA1 090228Z 20009KT 25/M09 A2969 RMK A01 T02481090  RH  010%=      5-min Rain = 0
KEA1 090229Z 22010KT 24/M09 A2969 RMK A01 T02441091  RH  010%=      5-min Rain = 0
KEA1 090230Z 23009KT 24/M09 A2969 RMK A01 T02421090  RH  010%=      5-min Rain = 0
KEA1 090231Z 22009KT 24/M09 A2969 RMK A01 T02421088  RH  010%=      5-min Rain = 0
KEA1 090232Z 21010KT 24/M09 A2969 RMK A01 T02411089  RH  010%=      5-min Rain = 0
KEA1 090233Z 21011KT 24/M09 A2969 RMK A01 T02361090  RH  011%=      5-min Rain = 0
KEA1 090234Z 20009KT 23/M09 A297 RMK A01 T02341089  RH  011%=      5-min Rain = 0
KEA1 090235Z 21010KT 23/M09 A297 RMK A01 T02321089  RH  011%=      5-min Rain = 0
KEA1 090236Z 21010KT 23/M09 A297 RMK A01 T02311088  RH  011%=      5-min Rain = 0
KEA1 090237Z 21009KT 23/M09 A297 RMK A01 T02311088  RH  011%=      5-min Rain = 0
KEA1 090238Z 22007KT 23/M09 A297 RMK A01 T02321088  RH  011%=      5-min Rain = 0
KEA1 090239Z 21009KT 23/M09 A297 RMK A01 T02321089  RH  011%=      5-min Rain = 0
KEA1 090240Z 22008KT 23/M09 A297 RMK A01 T02331088  RH  011%=      5-min Rain = 0
KEA1 090241Z 21009KT 23/M09 A297 RMK A01 T02331088  RH  011%=      5-min Rain = 0
KEA1 090242Z 21008KT 23/M09 A297 RMK A01 T02341087  RH  011%=      5-min Rain = 0
KEA1 090243Z 22008KT 24/M09 A297 RMK A01 T02361087  RH  011%=      5-min Rain = 0
KEA1 090244Z 22010KT 24/M09 A297 RMK A01 T02391087  RH  011%=      5-min Rain = 0
KEA1 090245Z 22012KT 24/M09 A297 RMK A01 T02421086  RH  011%=      5-min Rain = 0
KEA1 090246Z 22013KT 24/M09 A297 RMK A01 T02441085  RH  011%=      5-min Rain = 0
KEA1 090247Z 22012KT 25/M08 A297 RMK A01 T02451083  RH  011%=      5-min Rain = 0
KEA1 090248Z 23013KT 25/M08 A297 RMK A01 T02451083  RH  011%=      5-min Rain = 0
KEA1 090249Z 22012KT 25/M08 A297 RMK A01 T02451083  RH  011%=      5-min Rain = 0
KEA1 090250Z 23011KT 24/M08 A297 RMK A01 T02441083  RH  011%=      5-min Rain = 0
KEA1 090251Z 23011KT 24/M08 A297 RMK A01 T02431083  RH  011%=      5-min Rain = 0
KEA1 090252Z 23011KT 24/M08 A297 RMK A01 T02411083  RH  011%=      5-min Rain = 0
KEA1 090253Z 23010KT 24/M08 A297 RMK A01 T02411083  RH  011%=      5-min Rain = 0
KEA1 090254Z 22009KT 24/M08 A297 RMK A01 T02391084  RH  011%=      5-min Rain = 0
KEA1 090255Z 23010KT 24/M08 A297 RMK A01 T02381083  RH  011%=      5-min Rain = 0
KEA1 090256Z 23008KT 24/M08 A297 RMK A01 T02371083  RH  011%=      5-min Rain = 0
KEA1 090257Z 23008KT 24/M08 A297 RMK A01 T02361083  RH  011%=      5-min Rain = 0
KEA1 090258Z 23008KT 24/M08 A297 RMK A01 T02351083  RH  011%=      5-min Rain = 0
KEA1 090259Z 24008KT 23/M08 A297 RMK A01 T02341082  RH  011%=      5-min Rain = 0
KEA1 090300Z 23009KT 23/M08 A2971 RMK A01 T02331082  RH  012%=      5-min Rain = 0
KEA1 090301Z 23008KT 23/M08 A297 RMK A01 T02321082  RH  012%=      5-min Rain = 0
KEA1 090302Z 23009KT 23/M08 A297 RMK A01 T02301082  RH  012%=      5-min Rain = 0
KEA1 090303Z 23009KT 23/M08 A297 RMK A01 T02301081  RH  012%=      5-min Rain = 0
KEA1 090304Z 23009KT 23/M08 A297 RMK A01 T02291081  RH  012%=      5-min Rain = 0
KEA1 090305Z 23008KT 23/M08 A297 RMK A01 T02291080  RH  012%=      5-min Rain = 0
KEA1 090306Z 23009KT 23/M08 A297 RMK A01 T02281080  RH  012%=      5-min Rain = 0
KEA1 090307Z 23009KT 23/M08 A297 RMK A01 T02271079  RH  012%=      5-min Rain = 0
KEA1 090308Z 23008KT 23/M08 A297 RMK A01 T02271079  RH  012%=      5-min Rain = 0
KEA1 090309Z 23008KT 23/M08 A297 RMK A01 T02261079  RH  012%=      5-min Rain = 0
KEA1 090310Z 24008KT 23/M08 A297 RMK A01 T02261078  RH  012%=      5-min Rain = 0
KEA1 090311Z 23009KT 23/M08 A297 RMK A01 T02251078  RH  013%=      5-min Rain = 0
KEA1 090312Z 23008KT 23/M08 A297 RMK A01 T02251077  RH  013%=      5-min Rain = 0
KEA1 090313Z 23007KT 22/M08 A297 RMK A01 T02241078  RH  013%=      5-min Rain = 0
KEA1 090314Z 24008KT 22/M08 A297 RMK A01 T02231077  RH  013%=      5-min Rain = 0
KEA1 090315Z 23008KT 22/M08 A2971 RMK A01 T02221077  RH  013%=      5-min Rain = 0
KEA1 090316Z 23008KT 22/M08 A297 RMK A01 T02231076  RH  013%=      5-min Rain = 0
KEA1 090317Z 23009KT 22/M08 A297 RMK A01 T02221076  RH  013%=      5-min Rain = 0
KEA1 090318Z 23008KT 22/M08 A297 RMK A01 T02221075  RH  013%=      5-min Rain = 0
KEA1 090319Z 23009KT 22/M08 A297 RMK A01 T02221075  RH  013%=      5-min Rain = 0
KEA1 090320Z 23009KT 22/M07 A297 RMK A01 T02231074  RH  013%=      5-min Rain = 0
KEA1 090321Z 23010KT 22/M07 A297 RMK A01 T02241073  RH  013%=      5-min Rain = 0
KEA1 090322Z 22009KT 22/M07 A297 RMK A01 T02241073  RH  013%=      5-min Rain = 0
KEA1 090323Z 22010KT 23/M07 A297 RMK A01 T02251072  RH  013%=      5-min Rain = 0
KEA1 090324Z 22012KT 23/M07 A297 RMK A01 T02281070  RH  013%=      5-min Rain = 0
KEA1 090325Z 22010KT 23/M07 A297 RMK A01 T02291070  RH  013%=      5-min Rain = 0
KEA1 090326Z 22010KT 23/M07 A297 RMK A01 T02301069  RH  013%=      5-min Rain = 0
KEA1 090327Z 22013KT 23/M07 A297 RMK A01 T02311069  RH  013%=      5-min Rain = 0
KEA1 090328Z 23010KT 23/M07 A297 RMK A01 T02331068  RH  013%=      5-min Rain = 0
KEA1 090329Z 23010KT 23/M07 A297 RMK A01 T02331067  RH  013%=      5-min Rain = 0
KEA1 090330Z 23012KT 23/M07 A297 RMK A01 T02331068  RH  013%=      5-min Rain = 0
KEA1 090331Z 23011KT 23/M07 A297 RMK A01 T02331067  RH  013%=      5-min Rain = 0
KEA1 090332Z 23010KT 23/M07 A297 RMK A01 T02341066  RH  013%=      5-min Rain = 0
KEA1 090333Z 23012KT 24/M07 A297 RMK A01 T02351066  RH  013%=      5-min Rain = 0
KEA1 090334Z 23011KT 24/M07 A297 RMK A01 T02361065  RH  013%=      5-min Rain = 0
KEA1 090335Z 23010KT 24/M06 A297 RMK A01 T02371064  RH  013%=      5-min Rain = 0
KEA1 090336Z 24010KT 24/M07 A297 RMK A01 T02361065  RH  013%=      5-min Rain = 0
KEA1 090337Z 25009KT 24/M06 A297 RMK A01 T02361064  RH  013%=      5-min Rain = 0
KEA1 090338Z 25009KT 24/M06 A297 RMK A01 T02361064  RH  013%=      5-min Rain = 0
KEA1 090339Z 27007KT 24/M06 A297 RMK A01 T02351064  RH  013%=      5-min Rain = 0
KEA1 090340Z 32008KT 23/M06 A297 RMK A01 T02331060  RH  014%=      5-min Rain = 0
KEA1 090341Z 33007KT 22/M06 A2971 RMK A01 T02221061  RH  014%=      5-min Rain = 0
KEA1 090342Z 34005KT 21/M06 A297 RMK A01 T02111064  RH  015%=      5-min Rain = 0
KEA1 090343Z 33003KT 21/M06 A297 RMK A01 T02051062  RH  016%=      5-min Rain = 0
KEA1 090344Z 25002KT 20/M06 A297 RMK A01 T02011062  RH  016%=      5-min Rain = 0
KEA1 090345Z 31003KT 20/M06 A297 RMK A01 T02001060  RH  017%=      5-min Rain = 0
KEA1 090346Z 32005KT 20/M06 A297 RMK A01 T01991060  RH  017%=      5-min Rain = 0
KEA1 090347Z 28005KT 20/M06 A297 RMK A01 T01991060  RH  017%=      5-min Rain = 0
KEA1 090348Z 28006KT 20/M06 A297 RMK A01 T02011059  RH  017%=      5-min Rain = 0
KEA1 090349Z 27007KT 20/M06 A297 RMK A01 T02041057  RH  017%=      5-min Rain = 0
KEA1 090350Z 28005KT 21/M06 A297 RMK A01 T02091055  RH  016%=      5-min Rain = 0
KEA1 090351Z 26006KT 21/M06 A297 RMK A01 T02121055  RH  016%=      5-min Rain = 0
KEA1 090352Z 26006KT 21/M06 A297 RMK A01 T02131055  RH  016%=      5-min Rain = 0
KEA1 090353Z 28008KT 21/M05 A297 RMK A01 T02141053  RH  016%=      5-min Rain = 0
KEA1 090354Z 29007KT 22/M05 A297 RMK A01 T02151050  RH  016%=      5-min Rain = 0
KEA1 090355Z 28007KT 22/M05 A297 RMK A01 T02161048  RH  017%=      5-min Rain = 0
KEA1 090356Z 28007KT 22/M05 A297 RMK A01 T02151048  RH  017%=      5-min Rain = 0
KEA1 090357Z 27006KT 22/M05 A297 RMK A01 T02161048  RH  017%=      5-min Rain = 0
KEA1 090358Z 26006KT 22/M05 A297 RMK A01 T02161048  RH  017%=      5-min Rain = 0
KEA1 090359Z 26006KT 21/M05 A297 RMK A01 T02141051  RH  016%=      5-min Rain = 0
KEA1 090400Z 28007KT 21/M05 A2969 RMK A01 T02131053  RH  016%=      5-min Rain = 0
KEA1 090401Z 28006KT 21/M05 A2969 RMK A01 T02131052  RH  016%=      5-min Rain = 0
KEA1 090402Z 28005KT 21/M05 A2969 RMK A01 T02131052  RH  016%=      5-min Rain = 0
KEA1 090403Z 27006KT 21/M05 A2969 RMK A01 T02121053  RH  016%=      5-min Rain = 0
KEA1 090404Z 27006KT 21/M05 A2969 RMK A01 T02131054  RH  016%=      5-min Rain = 0
KEA1 090405Z 27006KT 22/M05 A2969 RMK A01 T02161054  RH  016%=      5-min Rain = 0
KEA1 090406Z 27007KT 22/M05 A2969 RMK A01 T02181053  RH  016%=      5-min Rain = 0
KEA1 090407Z 27006KT 22/M05 A2969 RMK A01 T02211051  RH  016%=      5-min Rain = 0
KEA1 090408Z 28007KT 22/M05 A2969 RMK A01 T02221052  RH  016%=      5-min Rain = 0
KEA1 090409Z 28007KT 22/M05 A2969 RMK A01 T02231052  RH  015%=      5-min Rain = 0
KEA1 090410Z 29007KT 22/M05 A2969 RMK A01 T02231052  RH  015%=      5-min Rain = 0
KEA1 090411Z 29008KT 22/M05 A2969 RMK A01 T02241050  RH  016%=      5-min Rain = 0
KEA1 090412Z 32004KT 23/M05 A2969 RMK A01 T02251051  RH  015%=      5-min Rain = 0
KEA1 090413Z 33003KT 22/M05 A2969 RMK A01 T02231052  RH  015%=      5-min Rain = 0
KEA1 090414Z 32004KT 22/M05 A2969 RMK A01 T02211053  RH  016%=      5-min Rain = 0
KEA1 090415Z 33005KT 22/M05 A2969 RMK A01 T02191053  RH  016%=      5-min Rain = 0
KEA1 090416Z 32005KT 22/M05 A2969 RMK A01 T02191053  RH  016%=      5-min Rain = 0
KEA1 090417Z 31005KT 22/M05 A2969 RMK A01 T02181054  RH  016%=      5-min Rain = 0
KEA1 090418Z 32005KT 22/M05 A2969 RMK A01 T02181054  RH  016%=      5-min Rain = 0
KEA1 090419Z 32005KT 22/M05 A2969 RMK A01 T02171054  RH  016%=      5-min Rain = 0
KEA1 090420Z 33005KT 22/M05 A2969 RMK A01 T02161054  RH  016%=      5-min Rain = 0
KEA1 090421Z 34005KT 22/M05 A2969 RMK A01 T02151054  RH  016%=      5-min Rain = 0
KEA1 090422Z 35005KT 22/M05 A2969 RMK A01 T02151054  RH  016%=      5-min Rain = 0
KEA1 090423Z 35005KT 21/M05 A2969 RMK A01 T02141053  RH  016%=      5-min Rain = 0
KEA1 090424Z 35005KT 21/M05 A2969 RMK A01 T02131052  RH  016%=      5-min Rain = 0
KEA1 090425Z 35004KT 21/M05 A2969 RMK A01 T02121051  RH  017%=      5-min Rain = 0
KEA1 090426Z 36003KT 21/M05 A2969 RMK A01 T02111052  RH  017%=      5-min Rain = 0
KEA1 090427Z 16003KT 21/M05 A2969 RMK A01 T02091052  RH  017%=      5-min Rain = 0
KEA1 090428Z 15004KT 21/M06 A2969 RMK A01 T02061055  RH  017%=      5-min Rain = 0
KEA1 090429Z 17002KT 20/M06 A2969 RMK A01 T02041055  RH  017%=      5-min Rain = 0
KEA1 090430Z 18000KT 20/M05 A2969 RMK A01 T02041053  RH  017%=      5-min Rain = 0
KEA1 090431Z 22001KT 21/M05 A2969 RMK A01 T02091053  RH  017%=      5-min Rain = 0
KEA1 090432Z 28001KT 21/M05 A2969 RMK A01 T02111053  RH  017%=      5-min Rain = 0
KEA1 090433Z 12000KT 21/M05 A2969 RMK A01 T02141053  RH  016%=      5-min Rain = 0
KEA1 090434Z 25000KT 22/M05 A2969 RMK A01 T02161053  RH  016%=      5-min Rain = 0
KEA1 090435Z 00000KT 22/M05 A2969 RMK A01 T02181053  RH  016%=      5-min Rain = 0
KEA1 090436Z 27001KT 22/M05 A2969 RMK A01 T02181053  RH  016%=      5-min Rain = 0
KEA1 090437Z 28002KT 22/M05 A2969 RMK A01 T02181053  RH  016%=      5-min Rain = 0
KEA1 090438Z 30002KT 22/M05 A2969 RMK A01 T02181053  RH  016%=      5-min Rain = 0
KEA1 090439Z 33006KT 22/M05 A2969 RMK A01 T02181053  RH  016%=      5-min Rain = 0
KEA1 090440Z 32008KT 22/M05 A2969 RMK A01 T02151053  RH  016%=      5-min Rain = 0
KEA1 090441Z 33005KT 21/M05 A2969 RMK A01 T02131050  RH  017%=      5-min Rain = 0
KEA1 090442Z 32008KT 21/M05 A297 RMK A01 T02131047  RH  017%=      5-min Rain = 0
KEA1 090443Z 30006KT 21/M05 A2969 RMK A01 T02131048  RH  017%=      5-min Rain = 0
KEA1 090444Z 27005KT 21/M05 A2969 RMK A01 T02141047  RH  017%=      5-min Rain = 0
KEA1 090445Z 26006KT 22/M05 A2969 RMK A01 T02151048  RH  017%=      5-min Rain = 0
KEA1 090446Z 25004KT 21/M05 A2969 RMK A01 T02141048  RH  017%=      5-min Rain = 0
KEA1 090447Z 29004KT 22/M05 A2969 RMK A01 T02161047  RH  017%=      5-min Rain = 0
KEA1 090448Z 27003KT 22/M04 A2968 RMK A01 T02201042  RH  017%=      5-min Rain = 0
KEA1 090449Z 21008KT 22/M04 A2968 RMK A01 T02241040  RH  017%=      5-min Rain = 0
KEA1 090450Z 18012KT 23/M05 A2969 RMK A01 T02251045  RH  016%=      5-min Rain = 0
KEA1 090451Z 18014KT 22/M05 A2969 RMK A01 T02171053  RH  016%=      5-min Rain = 0
KEA1 090452Z 18014G22KT 22/M05 A2968 RMK A01 T02151054  RH  016%=      5-min Rain = 0
KEA1 090453Z 19015KT 23/M05 A2968 RMK A01 T02271050  RH  015%=      5-min Rain = 0
KEA1 090454Z 23017G26KT 24/M05 A2968 RMK A01 T02351049  RH  015%=      5-min Rain = 0
KEA1 090455Z 25019KT 25/M05 A2968 RMK A01 T02461051  RH  014%=      5-min Rain = 0
KEA1 090456Z 26020KT 26/M05 A2967 RMK A01 T02571052  RH  013%=      5-min Rain = 0
KEA1 090457Z 23015KT 26/M05 A2967 RMK A01 T02611053  RH  012%=      5-min Rain = 0
KEA1 090458Z 20018G25KT 26/M05 A2967 RMK A01 T02621053  RH  012%=      5-min Rain = 0
KEA1 090459Z 18019G24KT 26/M06 A2967 RMK A01 T02561056  RH  012%=      5-min Rain = 0

Page generated in 0.0682 seconds.